Time,TemperatureF,DewpointF,PressureIn,WindDirection,WindDirectionDegrees,WindSpeedMPH,WindSpeedGustMPH,Humidity,HourlyPrecipIn,Conditions,Clouds,dailyrainin,SoftwareType,DateUTC
2013-08-10 00:00:00,75.2,42.5,30.07,ENE,64,0.0,0.0,31,0.00,RA,,0.00,WeatherDisplay:10.37,2013-08-10 04:00:00,
2013-08-10 00:01:00,74.8,42.1,30.07,ENE,64,0.0,0.0,31,0.00,RA,,0.00,WeatherDisplay:10.37,2013-08-10 04:01:00,
2013-08-10 00:06:00,74.8,43.0,30.07,ENE,64,0.0,0.0,32,0.00,RA,,0.00,WeatherDisplay:10.37,2013-08-10 04:06:00,
2013-08-10 00:07:00,74.7,42.9,30.07,ENE,64,0.0,0.0,32,0.00,RA,,0.00,WeatherDisplay:10.37,2013-08-10 04:07:00,
2013-08-10 00:11:00,74.7,42.9,30.07,ENE,64,0.0,0.0,32,0.00,CLR,,0.00,WeatherDisplay:10.37,2013-08-10 04:11:00,
2013-08-10 00:12:00,74.8,42.1,30.07,ENE,64,0.0,0.0,31,0.00,CLR,,0.00,WeatherDisplay:10.37,2013-08-10 04:12:00,
2013-08-10 00:16:00,74.6,43.6,30.07,ENE,64,0.0,0.0,33,0.00,CLR,,0.00,WeatherDisplay:10.37,2013-08-10 04:16:00,
2013-08-10 00:17:00,74.7,43.7,30.07,ENE,64,0.0,0.0,33,0.00,CLR,,0.00,WeatherDisplay:10.37,2013-08-10 04:17:00,
2013-08-10 00:21:00,74.5,42.7,30.07,ENE,64,0.0,0.0,32,0.00,CLR,,0.00,WeatherDisplay:10.37,2013-08-10 04:21:00,
2013-08-10 00:22:00,74.3,40.8,30.07,ENE,64,0.0,0.0,30,0.00,CLR,,0.00,WeatherDisplay:10.37,2013-08-10 04:22:00,
2013-08-10 00:26:00,74.7,42.9,30.07,ENE,64,0.0,0.0,32,0.00,CLR,,0.00,WeatherDisplay:10.37,2013-08-10 04:26:00,
2013-08-10 00:27:00,74.6,43.6,30.07,ENE,64,0.0,0.0,33,0.00,CLR,,0.00,WeatherDisplay:10.37,2013-08-10 04:27:00,
2013-08-10 00:31:00,74.8,45.3,30.07,ENE,64,0.0,0.0,35,0.00,CLR,,0.00,WeatherDisplay:10.37,2013-08-10 04:31:00,
2013-08-10 00:32:00,74.7,45.2,30.07,ENE,64,0.0,0.0,35,0.00,CLR,,0.00,WeatherDisplay:10.37,2013-08-10 04:32:00,
2013-08-10 00:36:00,74.5,42.7,30.07,ENE,64,0.0,0.0,32,0.00,CLR,,0.00,WeatherDisplay:10.37,2013-08-10 04:36:00,
2013-08-10 00:37:00,74.5,43.5,30.07,ENE,64,0.0,0.0,33,0.00,CLR,,0.00,WeatherDisplay:10.37,2013-08-10 04:37:00,
2013-08-10 00:38:00,74.4,44.2,30.07,ENE,64,0.0,0.0,34,0.00,CLR,,0.00,WeatherDisplay:10.37,2013-08-10 04:38:00,
2013-08-10 00:41:00,74.2,42.4,30.07,ENE,64,0.0,0.0,32,0.00,CLR,,0.00,WeatherDisplay:10.37,2013-08-10 04:41:00,
2013-08-10 00:42:00,74.4,44.2,30.07,ENE,64,0.0,0.0,34,0.00,CLR,,0.00,WeatherDisplay:10.37,2013-08-10 04:42:00,
2013-08-10 00:43:00,74.4,44.2,30.07,ENE,64,0.0,0.0,34,0.00,CLR,,0.00,WeatherDisplay:10.37,2013-08-10 04:43:00,
2013-08-10 00:46:00,74.3,44.1,30.07,ENE,64,0.0,0.0,34,0.00,CLR,,0.00,WeatherDisplay:10.37,2013-08-10 04:46:00,
2013-08-10 00:47:00,74.7,43.7,30.07,ENE,64,0.0,0.0,33,0.00,CLR,,0.00,WeatherDisplay:10.37,2013-08-10 04:47:00,
2013-08-10 00:48:00,74.7,43.7,30.07,ENE,64,0.0,0.0,33,0.00,CLR,,0.00,WeatherDisplay:10.37,2013-08-10 04:48:00,
2013-08-10 00:51:00,75.2,40.7,30.07,NW,315,4.2,9.2,29,0.00,CLR,,0.00,WeatherDisplay:10.37,2013-08-10 04:51:00,
2013-08-10 00:52:00,74.6,39.3,30.07,NW,315,0.0,9.2,28,0.00,CLR,,0.00,WeatherDisplay:10.37,2013-08-10 04:52:00,
2013-08-10 00:53:00,75.0,38.7,30.07,NW,315,0.4,0.0,27,0.00,CLR,,0.00,WeatherDisplay:10.37,2013-08-10 04:53:00,
2013-08-10 00:54:00,75.3,39.0,30.07,NW,315,0.4,2.3,27,0.00,CLR,,0.00,WeatherDisplay:10.37,2013-08-10 04:54:00,
2013-08-10 00:56:00,75.4,37.1,30.07,SSE,162,0.5,4.4,25,0.00,CLR,,0.00,WeatherDisplay:10.37,2013-08-10 04:56:00,
2013-08-10 00:57:00,75.2,35.9,30.07,SSE,154,1.1,4.6,24,0.00,CLR,,0.00,WeatherDisplay:10.37,2013-08-10 04:57:00,
2013-08-10 00:58:00,75.3,36.0,30.07,SW,229,0.9,3.5,24,0.00,CLR,,0.00,WeatherDisplay:10.37,2013-08-10 04:58:00,
2013-08-10 00:59:00,75.5,35.1,30.07,SW,229,1.4,4.6,23,0.00,CLR,,0.00,WeatherDisplay:10.37,2013-08-10 04:59:00,
2013-08-10 01:02:00,75.7,30.5,30.07,SW,229,5.0,6.9,19,0.00,CLR,,0.00,WeatherDisplay:10.37,2013-08-10 05:02:00,
2013-08-10 01:03:00,75.7,29.2,30.07,North,357,2.8,6.9,18,0.00,CLR,,0.00,WeatherDisplay:10.37,2013-08-10 05:03:00,
2013-08-10 01:04:00,75.9,27.9,30.07,North,357,1.1,4.6,17,0.00,CLR,,0.00,WeatherDisplay:10.37,2013-08-10 05:04:00,
2013-08-10 01:07:00,75.8,26.4,30.07,North,357,0.0,0.0,16,0.00,CLR,,0.00,WeatherDisplay:10.37,2013-08-10 05:07:00,
2013-08-10 01:08:00,76.0,26.5,30.07,North,357,0.0,0.0,16,0.00,CLR,,0.00,WeatherDisplay:10.37,2013-08-10 05:08:00,
2013-08-10 01:09:00,76.2,28.2,30.08,North,357,0.0,0.0,17,0.00,CLR,,0.00,WeatherDisplay:10.37,2013-08-10 05:09:00,
2013-08-10 01:12:00,75.9,26.5,30.08,North,357,0.0,0.0,16,0.00,CLR,,0.00,WeatherDisplay:10.37,2013-08-10 05:12:00,
2013-08-10 01:13:00,76.1,26.6,30.08,North,357,0.0,0.0,16,0.00,CLR,,0.00,WeatherDisplay:10.37,2013-08-10 05:13:00,
2013-08-10 01:15:00,75.9,26.5,30.07,North,357,0.0,0.0,16,0.00,CLR,,0.00,WeatherDisplay:10.37,2013-08-10 05:15:00,
2013-08-10 01:17:00,76.1,26.6,30.07,North,357,0.0,0.0,16,0.00,CLR,,0.00,WeatherDisplay:10.37,2013-08-10 05:17:00,
2013-08-10 01:18:00,75.7,26.3,30.07,North,357,0.0,0.0,16,0.00,CLR,,0.00,WeatherDisplay:10.37,2013-08-10 05:18:00,
2013-08-10 01:19:00,75.8,26.4,30.07,North,357,0.0,0.0,16,0.00,CLR,,0.00,WeatherDisplay:10.37,2013-08-10 05:19:00,
2013-08-10 01:20:00,75.8,26.4,30.07,North,357,0.0,0.0,16,0.00,CLR,,0.00,WeatherDisplay:10.37,2013-08-10 05:20:00,
2013-08-10 01:22:00,76.1,26.6,30.07,North,357,0.0,0.0,16,0.00,CLR,,0.00,WeatherDisplay:10.37,2013-08-10 05:22:00,
2013-08-10 01:23:00,75.9,26.5,30.07,WNW,302,0.2,5.2,16,0.00,CLR,,0.00,WeatherDisplay:10.37,2013-08-10 05:23:00,
2013-08-10 01:24:00,76.1,26.6,30.07,West,281,1.9,5.8,16,0.00,CLR,,0.00,WeatherDisplay:10.37,2013-08-10 05:24:00,
2013-08-10 01:25:00,75.9,26.5,30.07,West,281,0.0,0.0,16,0.00,CLR,,0.00,WeatherDisplay:10.37,2013-08-10 05:25:00,
2013-08-10 01:27:00,75.9,21.5,30.07,West,281,0.0,0.0,13,0.00,CLR,,0.00,WeatherDisplay:10.37,2013-08-10 05:27:00,
2013-08-10 01:28:00,76.1,23.4,30.07,West,281,0.0,0.0,14,0.00,CLR,,0.00,WeatherDisplay:10.37,2013-08-10 05:28:00,
2013-08-10 01:29:00,76.0,23.3,30.07,West,281,0.0,0.0,14,0.00,CLR,,0.00,WeatherDisplay:10.37,2013-08-10 05:29:00,
2013-08-10 01:30:00,76.0,25.0,30.07,West,281,0.0,0.0,15,0.00,CLR,,0.00,WeatherDisplay:10.37,2013-08-10 05:30:00,
2013-08-10 01:32:00,76.0,23.3,30.07,West,281,0.0,0.0,14,0.00,CLR,,0.00,WeatherDisplay:10.37,2013-08-10 05:32:00,
2013-08-10 01:33:00,75.9,23.2,30.07,West,281,0.0,0.0,14,0.00,CLR,,0.00,WeatherDisplay:10.37,2013-08-10 05:33:00,
2013-08-10 01:34:00,75.9,24.9,30.07,West,281,0.0,0.0,15,0.00,CLR,,0.00,WeatherDisplay:10.37,2013-08-10 05:34:00,
2013-08-10 01:35:00,75.7,19.4,30.08,West,281,0.0,0.0,12,0.00,CLR,,0.00,WeatherDisplay:10.37,2013-08-10 05:35:00,
2013-08-10 01:37:00,75.9,19.6,30.08,West,281,0.0,0.0,12,0.00,CLR,,0.00,WeatherDisplay:10.37,2013-08-10 05:37:00,
2013-08-10 01:38:00,75.6,19.4,30.08,West,281,0.0,0.0,12,0.00,CLR,,0.00,WeatherDisplay:10.37,2013-08-10 05:38:00,
2013-08-10 01:39:00,75.8,21.4,30.08,West,281,0.0,0.0,13,0.00,CLR,,0.00,WeatherDisplay:10.37,2013-08-10 05:39:00,
2013-08-10 01:40:00,75.8,12.9,30.08,West,281,0.0,0.0,9,0.00,CLR,,0.00,WeatherDisplay:10.37,2013-08-10 05:40:00,
2013-08-10 01:42:00,75.7,10.2,30.08,West,281,0.0,0.0,8,0.00,CLR,,0.00,WeatherDisplay:10.37,2013-08-10 05:42:00,
2013-08-10 01:43:00,75.8,7.3,30.08,West,281,0.0,0.0,7,0.00,CLR,,0.00,WeatherDisplay:10.37,2013-08-10 05:43:00,
2013-08-10 01:44:00,75.6,7.1,30.08,West,281,0.0,0.0,7,0.00,CLR,,0.00,WeatherDisplay:10.37,2013-08-10 05:44:00,
2013-08-10 01:46:00,75.5,24.6,30.08,West,281,0.0,0.0,15,0.00,CLR,,0.00,WeatherDisplay:10.37,2013-08-10 05:46:00,
2013-08-10 01:47:00,75.9,26.5,30.08,West,281,0.0,0.0,16,0.00,CLR,,0.00,WeatherDisplay:10.37,2013-08-10 05:47:00,
2013-08-10 01:48:00,75.9,26.5,30.08,West,281,0.0,0.0,16,0.00,CLR,,0.00,WeatherDisplay:10.37,2013-08-10 05:48:00,
2013-08-10 01:49:00,75.9,24.9,30.08,West,281,0.0,0.0,15,0.00,CLR,,0.00,WeatherDisplay:10.37,2013-08-10 05:49:00,
2013-08-10 01:50:00,75.6,23.0,30.08,West,281,0.0,0.0,14,0.00,CLR,,0.00,WeatherDisplay:10.37,2013-08-10 05:50:00,
2013-08-10 01:51:00,75.7,27.8,30.08,NW,315,2.3,4.5,17,0.00,CLR,,0.00,WeatherDisplay:10.37,2013-08-10 05:51:00,
2013-08-10 01:53:00,75.8,27.8,30.08,NW,308,0.0,0.0,17,0.00,CLR,,0.00,WeatherDisplay:10.37,2013-08-10 05:53:00,
2013-08-10 01:54:00,75.7,29.2,30.08,NW,308,0.0,0.0,18,0.00,CLR,,0.00,WeatherDisplay:10.37,2013-08-10 05:54:00,
2013-08-10 01:55:00,75.7,30.5,30.08,NW,308,0.0,0.0,19,0.00,CLR,,0.00,WeatherDisplay:10.37,2013-08-10 05:55:00,
2013-08-10 01:56:00,75.5,29.0,30.08,NW,319,2.7,5.8,18,0.00,CLR,,0.00,WeatherDisplay:10.37,2013-08-10 05:56:00,
2013-08-10 01:58:00,75.6,29.1,30.08,NW,319,0.0,0.0,18,0.00,CLR,,0.00,WeatherDisplay:10.37,2013-08-10 05:58:00,
2013-08-10 01:59:00,75.5,29.0,30.08,NW,319,0.0,0.0,18,0.00,CLR,,0.00,WeatherDisplay:10.37,2013-08-10 05:59:00,
2013-08-10 02:00:00,75.4,30.2,30.07,NW,319,0.0,0.0,19,0.00,CLR,,0.00,WeatherDisplay:10.37,2013-08-10 06:00:00,
2013-08-10 02:01:00,75.6,27.7,30.07,NW,319,0.0,0.0,17,0.00,CLR,,0.00,WeatherDisplay:10.37,2013-08-10 06:01:00,
2013-08-10 02:03:00,75.3,27.4,30.07,NW,319,0.0,0.0,17,0.00,CLR,,0.00,WeatherDisplay:10.37,2013-08-10 06:03:00,
2013-08-10 02:04:00,75.7,27.8,30.07,NW,319,0.0,0.0,17,0.00,CLR,,0.00,WeatherDisplay:10.37,2013-08-10 06:04:00,
2013-08-10 02:05:00,75.7,27.8,30.07,NW,319,0.0,0.0,17,0.00,CLR,,0.00,WeatherDisplay:10.37,2013-08-10 06:05:00,
2013-08-10 02:06:00,75.6,27.7,30.08,North,1,1.2,4.2,17,0.00,CLR,,0.00,WeatherDisplay:10.37,2013-08-10 06:06:00,
2013-08-10 02:08:00,75.7,26.3,30.07,NNW,340,3.1,6.9,16,0.00,CLR,,0.00,WeatherDisplay:10.37,2013-08-10 06:08:00,
2013-08-10 02:09:00,75.7,26.3,30.07,NNW,340,2.1,4.6,16,0.00,CLR,,0.00,WeatherDisplay:10.37,2013-08-10 06:09:00,
2013-08-10 02:10:00,75.4,26.1,30.07,NNW,340,0.0,0.0,16,0.00,CLR,,0.00,WeatherDisplay:10.37,2013-08-10 06:10:00,
2013-08-10 02:11:00,75.7,26.3,30.07,North,349,1.4,0.0,16,0.00,CLR,,0.00,WeatherDisplay:10.37,2013-08-10 06:11:00,
2013-08-10 02:13:00,75.9,26.5,30.07,North,349,0.0,0.0,16,0.00,CLR,,0.00,WeatherDisplay:10.37,2013-08-10 06:13:00,
2013-08-10 02:14:00,76.0,26.5,30.07,North,349,0.0,0.0,16,0.00,CLR,,0.00,WeatherDisplay:10.37,2013-08-10 06:14:00,
2013-08-10 02:15:00,75.5,26.1,30.07,North,349,0.0,0.0,16,0.00,CLR,,0.00,WeatherDisplay:10.37,2013-08-10 06:15:00,
2013-08-10 02:17:00,75.5,26.1,30.07,North,349,0.0,0.0,16,0.00,CLR,,0.00,WeatherDisplay:10.37,2013-08-10 06:17:00,
2013-08-10 02:19:00,76.0,28.0,30.07,North,349,0.0,0.0,17,0.00,CLR,,0.00,WeatherDisplay:10.37,2013-08-10 06:19:00,
2013-08-10 02:20:00,75.4,27.5,30.07,North,349,0.0,0.0,17,0.00,CLR,,0.00,WeatherDisplay:10.37,2013-08-10 06:20:00,
2013-08-10 02:23:00,75.5,27.6,30.07,North,349,0.0,0.0,17,0.00,CLR,,0.00,WeatherDisplay:10.37,2013-08-10 06:23:00,
2013-08-10 02:24:00,75.6,27.7,30.07,North,349,0.0,0.0,17,0.00,CLR,,0.00,WeatherDisplay:10.37,2013-08-10 06:24:00,
2013-08-10 02:25:00,75.8,27.8,30.07,North,349,0.0,0.0,17,0.00,CLR,,0.00,WeatherDisplay:10.37,2013-08-10 06:25:00,
2013-08-10 02:26:00,75.4,27.5,30.07,North,349,0.0,0.0,17,0.00,CLR,,0.00,WeatherDisplay:10.37,2013-08-10 06:26:00,
2013-08-10 02:28:00,75.8,27.8,30.07,North,349,0.0,0.0,17,0.00,CLR,,0.00,WeatherDisplay:10.37,2013-08-10 06:28:00,
2013-08-10 02:29:00,75.6,27.7,30.07,North,349,0.0,0.0,17,0.00,CLR,,0.00,WeatherDisplay:10.37,2013-08-10 06:29:00,
2013-08-10 02:30:00,75.7,27.8,30.07,West,280,0.8,0.0,17,0.00,CLR,,0.00,WeatherDisplay:10.37,2013-08-10 06:30:00,
2013-08-10 02:31:00,75.7,27.8,30.07,West,280,0.1,4.6,17,0.00,CLR,,0.00,WeatherDisplay:10.37,2013-08-10 06:31:00,
2013-08-10 02:34:00,75.7,27.8,30.07,West,280,0.0,0.0,17,0.00,CLR,,0.00,WeatherDisplay:10.37,2013-08-10 06:34:00,
2013-08-10 02:36:00,75.5,27.6,30.07,West,280,0.0,0.0,17,0.00,CLR,,0.00,WeatherDisplay:10.37,2013-08-10 06:36:00,
2013-08-10 02:39:00,75.8,27.8,30.07,West,280,0.0,0.0,17,0.00,CLR,,0.00,WeatherDisplay:10.37,2013-08-10 06:39:00,
2013-08-10 02:41:00,75.3,28.8,30.07,West,280,0.0,0.0,18,0.00,CLR,,0.00,WeatherDisplay:10.37,2013-08-10 06:41:00,
2013-08-10 02:42:00,75.2,28.8,30.07,West,280,0.0,0.0,18,0.00,CLR,,0.00,WeatherDisplay:10.37,2013-08-10 06:42:00,
2013-08-10 02:44:00,75.5,30.3,30.06,West,280,0.0,0.0,19,0.00,CLR,,0.00,WeatherDisplay:10.37,2013-08-10 06:44:00,
2013-08-10 02:46:00,75.3,30.2,30.07,West,280,0.0,0.0,19,0.00,CLR,,0.00,WeatherDisplay:10.37,2013-08-10 06:46:00,
2013-08-10 02:47:00,75.4,30.2,30.06,West,280,0.0,0.0,19,0.00,CLR,,0.00,WeatherDisplay:10.37,2013-08-10 06:47:00,
2013-08-10 02:49:00,75.3,30.2,30.07,West,280,0.0,0.0,19,0.00,CLR,,0.00,WeatherDisplay:10.37,2013-08-10 06:49:00,
2013-08-10 02:51:00,75.6,31.7,30.07,West,280,0.0,0.0,20,0.00,CLR,,0.00,WeatherDisplay:10.37,2013-08-10 06:51:00,
2013-08-10 02:52:00,75.7,31.8,30.07,West,280,0.0,0.0,20,0.00,CLR,,0.00,WeatherDisplay:10.37,2013-08-10 06:52:00,
2013-08-10 02:54:00,74.8,31.0,30.07,West,280,0.0,0.0,20,0.00,CLR,,0.00,WeatherDisplay:10.37,2013-08-10 06:54:00,
2013-08-10 02:55:00,75.2,32.6,30.07,West,280,0.0,0.0,21,0.00,CLR,,0.00,WeatherDisplay:10.37,2013-08-10 06:55:00,
2013-08-10 02:56:00,75.0,33.6,30.07,West,280,0.0,0.0,22,0.00,CLR,,0.00,WeatherDisplay:10.37,2013-08-10 06:56:00,
2013-08-10 02:57:00,74.8,32.2,30.07,West,280,0.0,0.0,21,0.00,CLR,,0.00,WeatherDisplay:10.37,2013-08-10 06:57:00,
2013-08-10 02:59:00,74.7,32.1,30.07,West,268,0.2,0.0,21,0.00,CLR,,0.00,WeatherDisplay:10.37,2013-08-10 06:59:00,
2013-08-10 03:00:00,74.7,32.1,30.07,West,268,0.2,2.3,21,0.00,CLR,,0.00,WeatherDisplay:10.37,2013-08-10 07:00:00,
2013-08-10 03:01:00,75.1,32.5,30.07,West,268,0.0,0.0,21,0.00,CLR,,0.00,WeatherDisplay:10.37,2013-08-10 07:01:00,
2013-08-10 03:02:00,75.2,32.6,30.07,West,268,0.0,0.0,21,0.00,CLR,,0.00,WeatherDisplay:10.37,2013-08-10 07:02:00,
2013-08-10 03:05:00,75.0,31.2,30.07,NW,326,3.4,6.9,20,0.00,CLR,,0.00,WeatherDisplay:10.37,2013-08-10 07:05:00,
2013-08-10 03:07:00,75.1,30.0,30.07,NNW,333,2.7,4.5,19,0.00,CLR,,0.00,WeatherDisplay:10.37,2013-08-10 07:07:00,
2013-08-10 03:10:00,75.2,30.1,30.07,North,360,5.0,6.9,19,0.00,CLR,,0.00,WeatherDisplay:10.37,2013-08-10 07:10:00,
2013-08-10 03:12:00,75.1,30.0,30.07,NNW,337,3.6,5.8,19,0.00,CLR,,0.00,WeatherDisplay:10.37,2013-08-10 07:12:00,
2013-08-10 03:14:00,74.9,29.8,30.07,NW,306,1.5,5.8,19,0.00,CLR,,0.00,WeatherDisplay:10.37,2013-08-10 07:14:00,
2013-08-10 03:15:00,74.9,31.1,30.07,WNW,301,2.4,5.8,20,0.00,CLR,,0.00,WeatherDisplay:10.37,2013-08-10 07:15:00,
2013-08-10 03:17:00,75.2,31.3,30.07,North,8,0.0,0.0,20,0.00,CLR,,0.00,WeatherDisplay:10.37,2013-08-10 07:17:00,
2013-08-10 03:19:00,74.8,31.0,30.07,WNW,302,2.6,5.8,20,0.00,CLR,,0.00,WeatherDisplay:10.37,2013-08-10 07:19:00,
2013-08-10 03:20:00,74.9,31.1,30.07,WNW,298,1.5,6.9,20,0.00,CLR,,0.00,WeatherDisplay:10.37,2013-08-10 07:20:00,
2013-08-10 03:21:00,75.2,31.3,30.07,NNW,332,0.9,3.5,20,0.00,CLR,,0.00,WeatherDisplay:10.37,2013-08-10 07:21:00,
2013-08-10 03:22:00,75.0,31.2,30.07,NNW,328,0.6,6.0,20,0.00,CLR,,0.00,WeatherDisplay:10.37,2013-08-10 07:22:00,
2013-08-10 03:24:00,75.2,31.3,30.07,NNW,328,1.6,4.9,20,0.00,CLR,,0.00,WeatherDisplay:10.37,2013-08-10 07:24:00,
2013-08-10 03:25:00,74.9,31.1,30.07,WNW,296,3.6,8.1,20,0.00,CLR,,0.00,WeatherDisplay:10.37,2013-08-10 07:25:00,
2013-08-10 03:26:00,74.7,30.9,30.07,West,277,3.5,5.8,20,0.00,CLR,,0.00,WeatherDisplay:10.37,2013-08-10 07:26:00,
2013-08-10 03:27:00,74.6,30.9,30.07,SW,236,0.0,5.8,20,0.00,CLR,,0.00,WeatherDisplay:10.37,2013-08-10 07:27:00,
2013-08-10 03:29:00,74.6,29.6,30.07,WNW,288,5.4,8.1,19,0.00,CLR,,0.00,WeatherDisplay:10.37,2013-08-10 07:29:00,
2013-08-10 03:31:00,75.0,28.6,30.07,NW,305,2.1,8.1,18,0.00,CLR,,0.00,WeatherDisplay:10.37,2013-08-10 07:31:00,
2013-08-10 03:32:00,74.9,28.5,30.07,WNW,299,4.5,8.1,18,0.00,CLR,,0.00,WeatherDisplay:10.37,2013-08-10 07:32:00,
2013-08-10 03:34:00,75.1,27.3,30.07,North,356,1.6,5.7,17,0.00,CLR,,0.00,WeatherDisplay:10.37,2013-08-10 07:34:00,
2013-08-10 03:36:00,75.0,27.2,30.08,NNW,340,0.0,0.0,17,0.00,CLR,,0.00,WeatherDisplay:10.37,2013-08-10 07:36:00,
2013-08-10 03:38:00,75.1,27.3,30.08,WNW,296,1.9,4.5,17,0.00,CLR,,0.00,WeatherDisplay:10.37,2013-08-10 07:38:00,
2013-08-10 03:39:00,74.8,25.6,30.07,NW,305,0.0,4.6,16,0.00,CLR,,0.00,WeatherDisplay:10.37,2013-08-10 07:39:00,
2013-08-10 03:41:00,75.0,27.2,30.07,NW,305,0.0,0.0,17,0.00,CLR,,0.00,WeatherDisplay:10.37,2013-08-10 07:41:00,
2013-08-10 03:43:00,75.3,27.4,30.07,NW,305,0.0,0.0,17,0.00,CLR,,0.00,WeatherDisplay:10.37,2013-08-10 07:43:00,
2013-08-10 03:44:00,75.1,28.7,30.07,NW,305,0.0,0.0,18,0.00,CLR,,0.00,WeatherDisplay:10.37,2013-08-10 07:44:00,
2013-08-10 03:46:00,74.8,28.4,30.07,NW,305,0.0,0.0,18,0.00,CLR,,0.00,WeatherDisplay:10.37,2013-08-10 07:46:00,
2013-08-10 03:48:00,74.8,28.4,30.07,NW,305,0.0,0.0,18,0.00,CLR,,0.00,WeatherDisplay:10.37,2013-08-10 07:48:00,
2013-08-10 03:49:00,75.3,28.8,30.07,NW,305,0.0,0.0,18,0.00,CLR,,0.00,WeatherDisplay:10.37,2013-08-10 07:49:00,
2013-08-10 03:51:00,75.0,28.6,30.08,WNW,282,0.4,2.3,18,0.00,CLR,,0.00,WeatherDisplay:10.37,2013-08-10 07:51:00,
2013-08-10 03:52:00,75.2,27.4,30.08,WNW,282,0.0,0.0,17,0.00,CLR,,0.00,WeatherDisplay:10.37,2013-08-10 07:52:00,
2013-08-10 03:53:00,74.8,27.0,30.07,WNW,282,0.0,0.0,17,0.00,CLR,,0.00,WeatherDisplay:10.37,2013-08-10 07:53:00,
2013-08-10 03:55:00,74.8,27.0,30.07,WNW,282,0.0,0.0,17,0.00,CLR,,0.00,WeatherDisplay:10.37,2013-08-10 07:55:00,
2013-08-10 03:56:00,75.0,27.2,30.07,WNW,282,0.0,0.0,17,0.00,CLR,,0.00,WeatherDisplay:10.37,2013-08-10 07:56:00,
2013-08-10 03:57:00,74.9,27.1,30.07,WNW,282,0.0,0.0,17,0.00,CLR,,0.00,WeatherDisplay:10.37,2013-08-10 07:57:00,
2013-08-10 03:58:00,74.7,27.0,30.08,WNW,282,0.0,0.0,17,0.00,CLR,,0.00,WeatherDisplay:10.37,2013-08-10 07:58:00,
2013-08-10 04:00:00,74.9,27.1,30.08,NNW,346,1.4,3.5,17,0.00,CLR,,0.00,WeatherDisplay:10.37,2013-08-10 08:00:00,
2013-08-10 04:01:00,74.9,28.5,30.08,NW,319,0.1,4.6,18,0.00,CLR,,0.00,WeatherDisplay:10.37,2013-08-10 08:01:00,
2013-08-10 04:02:00,74.6,28.3,30.08,NW,319,0.0,0.0,18,0.00,CLR,,0.00,WeatherDisplay:10.37,2013-08-10 08:02:00,
2013-08-10 04:03:00,74.6,28.3,30.08,WNW,294,2.0,4.6,18,0.00,CLR,,0.00,WeatherDisplay:10.37,2013-08-10 08:03:00,
2013-08-10 04:05:00,74.8,28.4,30.08,WNW,302,0.2,3.5,18,0.00,CLR,,0.00,WeatherDisplay:10.37,2013-08-10 08:05:00,
2013-08-10 04:07:00,74.8,28.4,30.08,WNW,302,0.0,0.0,18,0.00,CLR,,0.00,WeatherDisplay:10.37,2013-08-10 08:07:00,
2013-08-10 04:08:00,74.6,28.3,30.07,WNW,291,1.3,4.6,18,0.00,CLR,,0.00,WeatherDisplay:10.37,2013-08-10 08:08:00,
2013-08-10 04:10:00,74.7,28.3,30.07,West,261,3.4,6.9,18,0.00,CLR,,0.00,WeatherDisplay:10.37,2013-08-10 08:10:00,
2013-08-10 04:12:00,74.7,28.3,30.07,NW,315,2.3,3.5,18,0.00,CLR,,0.00,WeatherDisplay:10.37,2013-08-10 08:12:00,
2013-08-10 04:14:00,74.4,29.4,30.08,NW,315,0.0,0.0,19,0.00,CLR,,0.00,WeatherDisplay:10.37,2013-08-10 08:14:00,
2013-08-10 04:15:00,74.8,29.8,30.08,NW,315,0.0,0.0,19,0.00,CLR,,0.00,WeatherDisplay:10.37,2013-08-10 08:15:00,
2013-08-10 04:17:00,74.3,30.6,30.07,NW,315,0.0,0.0,20,0.00,CLR,,0.00,WeatherDisplay:10.37,2013-08-10 08:17:00,
2013-08-10 04:18:00,74.4,30.7,30.08,NW,315,0.0,0.0,20,0.00,CLR,,0.00,WeatherDisplay:10.37,2013-08-10 08:18:00,
2013-08-10 04:19:00,74.5,30.8,30.08,NW,315,0.0,0.0,20,0.00,CLR,,0.00,WeatherDisplay:10.37,2013-08-10 08:19:00,
2013-08-10 04:20:00,74.4,31.9,30.08,NW,315,0.0,0.0,21,0.00,CLR,,0.00,WeatherDisplay:10.37,2013-08-10 08:20:00,
2013-08-10 04:22:00,74.2,31.7,30.08,NW,315,0.0,0.0,21,0.00,CLR,,0.00,WeatherDisplay:10.37,2013-08-10 08:22:00,
2013-08-10 04:23:00,74.2,32.9,30.08,NW,315,0.0,0.0,22,0.00,CLR,,0.00,WeatherDisplay:10.37,2013-08-10 08:23:00,
2013-08-10 04:24:00,74.2,32.9,30.08,NW,315,0.0,0.0,22,0.00,CLR,,0.00,WeatherDisplay:10.37,2013-08-10 08:24:00,
2013-08-10 04:25:00,74.2,34.0,30.07,NW,315,0.0,0.0,23,0.00,CLR,,0.00,WeatherDisplay:10.37,2013-08-10 08:25:00,
2013-08-10 04:28:00,74.3,34.1,30.08,NW,315,0.0,0.0,23,0.00,CLR,,0.00,WeatherDisplay:10.37,2013-08-10 08:28:00,
2013-08-10 04:29:00,74.2,35.1,30.07,NW,315,0.0,0.0,24,0.00,CLR,,0.00,WeatherDisplay:10.37,2013-08-10 08:29:00,
2013-08-10 04:30:00,74.2,35.1,30.07,NW,315,0.0,0.0,24,0.00,CLR,,0.00,WeatherDisplay:10.37,2013-08-10 08:30:00,
2013-08-10 04:32:00,74.1,35.0,30.08,NW,326,0.4,0.0,24,0.00,CLR,,0.00,WeatherDisplay:10.37,2013-08-10 08:32:00,
2013-08-10 04:33:00,74.2,35.1,30.08,NW,326,0.2,2.3,24,0.00,CLR,,0.00,WeatherDisplay:10.37,2013-08-10 08:33:00,
2013-08-10 04:34:00,74.1,35.0,30.07,NW,326,0.0,0.0,24,0.00,CLR,,0.00,WeatherDisplay:10.37,2013-08-10 08:34:00,
2013-08-10 04:35:00,74.2,35.1,30.07,NW,326,0.0,0.0,24,0.00,CLR,,0.00,WeatherDisplay:10.37,2013-08-10 08:35:00,
2013-08-10 04:38:00,74.2,35.1,30.07,NW,326,0.0,0.0,24,0.00,CLR,,0.00,WeatherDisplay:10.37,2013-08-10 08:38:00,
2013-08-10 04:39:00,74.2,35.1,30.08,North,360,3.5,6.9,24,0.00,CLR,,0.00,WeatherDisplay:10.37,2013-08-10 08:39:00,
2013-08-10 04:40:00,74.1,35.0,30.08,NNE,17,0.9,4.6,24,0.00,CLR,,0.00,WeatherDisplay:10.37,2013-08-10 08:40:00,
2013-08-10 04:41:00,74.2,35.1,30.08,NNW,340,2.0,8.1,24,0.00,CLR,,0.00,WeatherDisplay:10.37,2013-08-10 08:41:00,
2013-08-10 04:43:00,74.2,35.1,30.08,North,349,0.0,0.0,24,0.00,CLR,,0.00,WeatherDisplay:10.37,2013-08-10 08:43:00,
2013-08-10 04:45:00,74.2,35.1,30.08,NW,309,3.2,6.9,24,0.00,CLR,,0.00,WeatherDisplay:10.37,2013-08-10 08:45:00,
2013-08-10 04:46:00,74.2,35.1,30.08,NW,309,0.0,0.0,24,0.00,CLR,,0.00,WeatherDisplay:10.37,2013-08-10 08:46:00,
2013-08-10 04:48:00,74.1,35.0,30.07,North,360,1.8,5.8,24,0.00,CLR,,0.00,WeatherDisplay:10.37,2013-08-10 08:48:00,
2013-08-10 04:50:00,74.2,35.1,30.07,North,6,0.8,4.6,24,0.00,CLR,,0.00,WeatherDisplay:10.37,2013-08-10 08:50:00,
2013-08-10 04:51:00,74.1,35.0,30.07,North,356,1.1,5.8,24,0.00,CLR,,0.00,WeatherDisplay:10.37,2013-08-10 08:51:00,
2013-08-10 04:53:00,74.1,36.0,30.07,NNW,330,1.3,5.8,25,0.00,CLR,,0.00,WeatherDisplay:10.37,2013-08-10 08:53:00,
2013-08-10 04:54:00,74.1,36.0,30.08,NNW,330,0.0,0.0,25,0.00,CLR,,0.00,WeatherDisplay:10.37,2013-08-10 08:54:00,
2013-08-10 04:55:00,74.1,35.0,30.08,NNW,330,0.0,0.0,24,0.00,CLR,,0.00,WeatherDisplay:10.37,2013-08-10 08:55:00,
2013-08-10 04:56:00,74.1,36.0,30.07,NNW,330,0.0,0.0,25,0.00,CLR,,0.00,WeatherDisplay:10.37,2013-08-10 08:56:00,
2013-08-10 04:58:00,74.2,36.1,30.07,North,356,1.6,4.5,25,0.00,CLR,,0.00,WeatherDisplay:10.37,2013-08-10 08:58:00,
2013-08-10 05:00:00,74.1,36.0,30.07,NNW,346,0.0,4.6,25,0.00,CLR,,0.00,WeatherDisplay:10.37,2013-08-10 09:00:00,
2013-08-10 05:01:00,74.2,36.1,30.07,NNW,346,0.0,0.0,25,0.00,CLR,,0.00,WeatherDisplay:10.37,2013-08-10 09:01:00,
2013-08-10 05:02:00,74.1,36.0,30.08,NW,320,1.6,0.0,25,0.00,CLR,,0.00,WeatherDisplay:10.37,2013-08-10 09:02:00,
2013-08-10 05:03:00,73.9,35.8,30.08,NW,320,0.0,0.0,25,0.00,CLR,,0.00,WeatherDisplay:10.37,2013-08-10 09:03:00,
2013-08-10 05:05:00,74.1,37.0,30.08,NW,320,0.0,0.0,26,0.00,CLR,,0.00,WeatherDisplay:10.37,2013-08-10 09:05:00,
2013-08-10 05:06:00,74.1,37.0,30.08,NW,320,0.0,0.0,26,0.00,CLR,,0.00,WeatherDisplay:10.37,2013-08-10 09:06:00,
2013-08-10 05:07:00,74.1,37.0,30.08,NW,320,0.0,0.0,26,0.00,CLR,,0.00,WeatherDisplay:10.37,2013-08-10 09:07:00,
2013-08-10 05:09:00,74.1,37.0,30.08,NW,320,0.0,0.0,26,0.00,CLR,,0.00,WeatherDisplay:10.37,2013-08-10 09:09:00,
2013-08-10 05:10:00,74.1,37.0,30.08,NW,320,0.0,0.0,26,0.00,CLR,,0.00,WeatherDisplay:10.37,2013-08-10 09:10:00,
2013-08-10 05:11:00,74.1,38.0,30.08,NW,320,0.0,0.0,27,0.00,CLR,,0.00,WeatherDisplay:10.37,2013-08-10 09:11:00,
2013-08-10 05:12:00,74.0,37.9,30.08,NW,320,0.0,0.0,27,0.00,CLR,,0.00,WeatherDisplay:10.37,2013-08-10 09:12:00,
2013-08-10 05:14:00,73.8,36.8,30.08,NW,320,0.0,0.0,26,0.00,CLR,,0.00,WeatherDisplay:10.37,2013-08-10 09:14:00,
2013-08-10 05:15:00,74.1,38.9,30.08,NW,320,0.0,0.0,28,0.00,CLR,,0.00,WeatherDisplay:10.37,2013-08-10 09:15:00,
2013-08-10 05:16:00,74.0,38.8,30.08,NW,320,0.0,0.0,28,0.00,CLR,,0.00,WeatherDisplay:10.37,2013-08-10 09:16:00,
2013-08-10 05:17:00,74.0,37.9,30.08,NW,320,0.0,0.0,27,0.00,CLR,,0.00,WeatherDisplay:10.37,2013-08-10 09:17:00,
2013-08-10 05:19:00,73.8,38.6,30.08,NW,320,0.0,0.0,28,0.00,CLR,,0.00,WeatherDisplay:10.37,2013-08-10 09:19:00,
2013-08-10 05:20:00,74.1,38.9,30.08,NW,320,0.0,0.0,28,0.00,CLR,,0.00,WeatherDisplay:10.37,2013-08-10 09:20:00,
2013-08-10 05:21:00,74.1,38.9,30.08,NW,320,0.0,0.0,28,0.00,CLR,,0.00,WeatherDisplay:10.37,2013-08-10 09:21:00,
2013-08-10 05:22:00,74.1,38.9,30.08,NW,320,0.0,0.0,28,0.00,CLR,,0.00,WeatherDisplay:10.37,2013-08-10 09:22:00,
2013-08-10 05:23:00,73.9,39.6,30.08,NW,320,0.0,0.0,29,0.00,CLR,,0.00,WeatherDisplay:10.37,2013-08-10 09:23:00,
2013-08-10 05:24:00,73.8,38.6,30.07,NW,320,0.0,0.0,28,0.00,CLR,,0.00,WeatherDisplay:10.37,2013-08-10 09:24:00,
2013-08-10 05:25:00,73.8,39.5,30.07,NW,320,0.0,0.0,29,0.00,CLR,,0.00,WeatherDisplay:10.37,2013-08-10 09:25:00,
2013-08-10 05:26:00,74.1,38.9,30.08,NW,320,0.0,0.0,28,0.00,CLR,,0.00,WeatherDisplay:10.37,2013-08-10 09:26:00,
2013-08-10 05:27:00,73.8,38.6,30.08,NW,320,0.0,0.0,28,0.00,CLR,,0.00,WeatherDisplay:10.37,2013-08-10 09:27:00,
2013-08-10 05:28:00,73.9,38.7,30.08,NW,320,0.0,0.0,28,0.00,CLR,,0.00,WeatherDisplay:10.37,2013-08-10 09:28:00,
2013-08-10 05:29:00,74.0,38.8,30.08,NW,320,0.0,0.0,28,0.00,CLR,,0.00,WeatherDisplay:10.37,2013-08-10 09:29:00,
2013-08-10 05:30:00,74.1,38.9,30.08,NW,320,0.0,0.0,28,0.00,CLR,,0.00,WeatherDisplay:10.37,2013-08-10 09:30:00,
2013-08-10 05:31:00,73.8,39.5,30.08,NW,320,0.0,0.0,29,0.00,CLR,,0.00,WeatherDisplay:10.37,2013-08-10 09:31:00,
2013-08-10 05:32:00,73.9,39.6,30.08,NW,320,0.0,0.0,29,0.00,CLR,,0.00,WeatherDisplay:10.37,2013-08-10 09:32:00,
2013-08-10 05:33:00,73.9,39.6,30.08,NW,320,0.0,0.0,29,0.00,CLR,,0.00,WeatherDisplay:10.37,2013-08-10 09:33:00,
2013-08-10 05:34:00,73.9,39.6,30.08,NW,320,0.0,0.0,29,0.00,CLR,,0.00,WeatherDisplay:10.37,2013-08-10 09:34:00,
2013-08-10 05:35:00,73.9,39.6,30.08,NW,320,0.0,0.0,29,0.00,CLR,,0.00,WeatherDisplay:10.37,2013-08-10 09:35:00,
2013-08-10 05:37:00,73.7,39.5,30.08,NW,320,0.0,0.0,29,0.00,CLR,,0.00,WeatherDisplay:10.37,2013-08-10 09:37:00,
2013-08-10 05:38:00,73.8,39.5,30.08,NW,320,0.0,0.0,29,0.00,CLR,,0.00,WeatherDisplay:10.37,2013-08-10 09:38:00,
2013-08-10 05:39:00,73.8,40.4,30.08,NW,320,0.0,0.0,30,0.00,CLR,,0.00,WeatherDisplay:10.37,2013-08-10 09:39:00,
2013-08-10 05:40:00,73.5,39.3,30.08,NW,320,0.0,0.0,29,0.00,CLR,,0.00,WeatherDisplay:10.37,2013-08-10 09:40:00,
2013-08-10 05:42:00,73.9,39.6,30.08,NW,320,0.0,0.0,29,0.00,CLR,,0.00,WeatherDisplay:10.37,2013-08-10 09:42:00,
2013-08-10 05:43:00,73.8,39.5,30.08,NW,320,0.0,0.0,29,0.00,CLR,,0.00,WeatherDisplay:10.37,2013-08-10 09:43:00,
2013-08-10 05:44:00,73.7,39.5,30.08,NW,320,0.0,0.0,29,0.00,CLR,,0.00,WeatherDisplay:10.37,2013-08-10 09:44:00,
2013-08-10 05:45:00,73.6,39.4,30.08,NW,320,0.0,0.0,29,0.00,CLR,,0.00,WeatherDisplay:10.37,2013-08-10 09:45:00,
2013-08-10 05:48:00,73.8,39.5,30.08,NW,320,0.0,0.0,29,0.00,CLR,,0.00,WeatherDisplay:10.37,2013-08-10 09:48:00,
2013-08-10 05:49:00,73.5,39.3,30.08,NW,320,0.0,0.0,29,0.00,CLR,,0.00,WeatherDisplay:10.37,2013-08-10 09:49:00,
2013-08-10 05:50:00,73.8,39.5,30.08,NW,320,0.0,0.0,29,0.00,CLR,,0.00,WeatherDisplay:10.37,2013-08-10 09:50:00,
2013-08-10 05:53:00,73.5,40.2,30.08,NW,320,0.0,0.0,30,0.00,CLR,,0.00,WeatherDisplay:10.37,2013-08-10 09:53:00,
2013-08-10 05:55:00,73.7,40.3,30.08,NW,320,0.0,0.0,30,0.00,CLR,,0.00,WeatherDisplay:10.37,2013-08-10 09:55:00,
2013-08-10 05:58:00,73.4,40.9,30.08,NW,320,0.0,0.0,31,0.00,CLR,,0.00,WeatherDisplay:10.37,2013-08-10 09:58:00,
2013-08-10 05:59:00,73.6,40.2,30.08,NW,320,0.0,0.0,30,0.00,CLR,,0.00,WeatherDisplay:10.37,2013-08-10 09:59:00,
2013-08-10 06:00:00,73.4,40.1,30.08,NW,320,0.0,0.0,30,0.00,CLR,,0.00,WeatherDisplay:10.37,2013-08-10 10:00:00,
2013-08-10 06:03:00,73.5,40.2,30.08,NW,320,0.0,0.0,30,0.00,CLR,,0.00,WeatherDisplay:10.37,2013-08-10 10:03:00,
2013-08-10 06:04:00,73.4,40.1,30.08,NW,320,0.0,0.0,30,0.00,CLR,,0.00,WeatherDisplay:10.37,2013-08-10 10:04:00,
2013-08-10 06:06:00,73.2,39.9,30.08,NW,320,0.0,0.0,30,0.00,CLR,,0.00,WeatherDisplay:10.37,2013-08-10 10:06:00,
2013-08-10 06:08:00,73.5,40.2,30.08,NW,320,0.0,0.0,30,0.00,CLR,,0.00,WeatherDisplay:10.37,2013-08-10 10:08:00,
2013-08-10 06:09:00,73.5,40.2,30.08,NW,320,0.0,0.0,30,0.00,CLR,,0.00,WeatherDisplay:10.37,2013-08-10 10:09:00,
2013-08-10 06:11:00,73.5,40.2,30.08,WSW,257,1.8,5.8,30,0.00,CLR,,0.00,WeatherDisplay:10.37,2013-08-10 10:11:00,
2013-08-10 06:12:00,73.4,40.1,30.08,WSW,257,0.6,5.8,30,0.00,CLR,,0.00,WeatherDisplay:10.37,2013-08-10 10:12:00,
2013-08-10 06:14:00,73.6,40.2,30.08,WSW,257,0.0,0.0,30,0.00,CLR,,0.00,WeatherDisplay:10.37,2013-08-10 10:14:00,
2013-08-10 06:16:00,73.6,39.4,30.08,WSW,257,0.0,0.0,29,0.00,CLR,,0.00,WeatherDisplay:10.37,2013-08-10 10:16:00,
2013-08-10 06:17:00,73.4,39.2,30.08,WSW,257,0.0,0.0,29,0.00,CLR,,0.00,WeatherDisplay:10.37,2013-08-10 10:17:00,
2013-08-10 06:19:00,73.6,39.4,30.08,WSW,257,0.0,0.0,29,0.00,CLR,,0.00,WeatherDisplay:10.37,2013-08-10 10:19:00,
2013-08-10 06:20:00,73.3,39.1,30.08,WSW,257,0.0,0.0,29,0.00,CLR,,0.00,WeatherDisplay:10.37,2013-08-10 10:20:00,
2013-08-10 06:22:00,73.5,39.3,30.08,WSW,257,0.0,0.0,29,0.00,CLR,,0.00,WeatherDisplay:10.37,2013-08-10 10:22:00,
2013-08-10 06:24:00,73.4,39.2,30.08,WSW,257,0.0,0.0,29,0.00,CLR,,0.00,WeatherDisplay:10.37,2013-08-10 10:24:00,
2013-08-10 06:25:00,73.5,39.3,30.08,WSW,257,0.0,0.0,29,0.00,CLR,,0.00,WeatherDisplay:10.37,2013-08-10 10:25:00,
2013-08-10 06:27:00,73.3,39.1,30.08,NW,315,1.2,0.0,29,0.00,CLR,,0.00,WeatherDisplay:10.37,2013-08-10 10:27:00,
2013-08-10 06:29:00,73.5,39.3,30.08,WNW,295,0.0,0.0,29,0.00,CLR,,0.00,WeatherDisplay:10.37,2013-08-10 10:29:00,
2013-08-10 06:30:00,73.7,39.5,30.08,WNW,295,0.0,0.0,29,0.00,CLR,,0.00,WeatherDisplay:10.37,2013-08-10 10:30:00,
2013-08-10 06:32:00,73.6,39.4,30.08,WNW,295,0.0,0.0,29,0.00,CLR,,0.00,WeatherDisplay:10.37,2013-08-10 10:32:00,
2013-08-10 06:33:00,73.2,39.0,30.08,WNW,295,0.0,0.0,29,0.00,CLR,,0.00,WeatherDisplay:10.37,2013-08-10 10:33:00,
2013-08-10 06:34:00,73.5,39.3,30.08,WNW,295,0.0,0.0,29,0.00,CLR,,0.00,WeatherDisplay:10.37,2013-08-10 10:34:00,
2013-08-10 06:35:00,73.5,38.4,30.08,WNW,295,0.0,0.0,28,0.00,CLR,,0.00,WeatherDisplay:10.37,2013-08-10 10:35:00,
2013-08-10 06:37:00,73.2,39.0,30.08,WNW,295,0.0,0.0,29,0.00,CLR,,0.00,WeatherDisplay:10.37,2013-08-10 10:37:00,
2013-08-10 06:38:00,73.4,39.2,30.08,WNW,295,0.0,0.0,29,0.00,CLR,,0.00,WeatherDisplay:10.37,2013-08-10 10:38:00,
2013-08-10 06:39:00,73.6,39.4,30.08,WNW,295,0.0,0.0,29,0.00,CLR,,0.00,WeatherDisplay:10.37,2013-08-10 10:39:00,
2013-08-10 06:40:00,73.2,39.0,30.08,NW,311,0.6,0.0,29,0.00,CLR,,0.00,WeatherDisplay:10.37,2013-08-10 10:40:00,
2013-08-10 06:41:00,73.6,39.4,30.08,NW,311,0.6,0.0,29,0.00,CLR,,0.00,WeatherDisplay:10.37,2013-08-10 10:41:00,
2013-08-10 06:43:00,73.4,39.2,30.09,NNW,344,3.5,4.6,29,0.00,CLR,,0.00,WeatherDisplay:10.37,2013-08-10 10:43:00,
2013-08-10 06:45:00,73.4,39.2,30.09,NNW,330,0.3,6.9,29,0.00,CLR,,0.00,WeatherDisplay:10.37,2013-08-10 10:45:00,
2013-08-10 06:46:00,73.5,39.3,30.09,NW,316,1.0,3.5,29,0.00,CLR,,0.00,WeatherDisplay:10.37,2013-08-10 10:46:00,
2013-08-10 06:48:00,73.7,39.5,30.09,NW,316,0.0,0.0,29,0.00,CLR,,0.00,WeatherDisplay:10.37,2013-08-10 10:48:00,
2013-08-10 06:49:00,73.2,39.0,30.09,WNW,302,1.1,5.8,29,0.00,CLR,,0.00,WeatherDisplay:10.37,2013-08-10 10:49:00,
2013-08-10 06:50:00,73.3,39.1,30.09,WNW,302,0.0,0.0,29,0.00,CLR,,0.00,WeatherDisplay:10.37,2013-08-10 10:50:00,
2013-08-10 06:51:00,73.3,39.1,30.10,WNW,302,0.0,0.0,29,0.00,CLR,,0.00,WeatherDisplay:10.37,2013-08-10 10:51:00,
2013-08-10 06:53:00,73.4,39.2,30.10,North,353,1.7,5.8,29,0.00,CLR,,0.00,WeatherDisplay:10.37,2013-08-10 10:53:00,
2013-08-10 06:54:00,73.5,39.3,30.10,NW,305,4.1,8.1,29,0.00,CLR,,0.00,WeatherDisplay:10.37,2013-08-10 10:54:00,
2013-08-10 06:55:00,73.5,39.3,30.10,North,356,4.1,8.1,29,0.00,CLR,,0.00,WeatherDisplay:10.37,2013-08-10 10:55:00,
2013-08-10 06:56:00,73.3,39.1,30.10,NW,322,1.9,5.8,29,0.00,CLR,,0.00,WeatherDisplay:10.37,2013-08-10 10:56:00,
2013-08-10 06:58:00,73.5,39.3,30.10,NW,313,0.0,3.5,29,0.00,CLR,,0.00,WeatherDisplay:10.37,2013-08-10 10:58:00,
2013-08-10 06:59:00,73.5,39.3,30.10,NW,313,0.0,0.0,29,0.00,CLR,,0.00,WeatherDisplay:10.37,2013-08-10 10:59:00,
2013-08-10 07:00:00,73.6,38.5,30.10,NW,313,0.0,0.0,28,0.00,CLR,,0.00,WeatherDisplay:10.37,2013-08-10 11:00:00,
2013-08-10 07:01:00,73.7,38.6,30.10,NW,313,0.0,0.0,28,0.00,CLR,,0.00,WeatherDisplay:10.37,2013-08-10 11:01:00,
2013-08-10 07:03:00,73.5,37.5,30.10,NW,313,0.0,0.0,27,0.00,CLR,,0.00,WeatherDisplay:10.37,2013-08-10 11:03:00,
2013-08-10 07:04:00,73.6,37.5,30.10,NW,313,0.0,0.0,27,0.00,CLR,,0.00,WeatherDisplay:10.37,2013-08-10 11:04:00,
2013-08-10 07:05:00,73.4,37.4,30.10,NNW,346,1.1,4.6,27,0.00,CLR,,0.00,WeatherDisplay:10.37,2013-08-10 11:05:00,
2013-08-10 07:06:00,73.7,37.6,30.10,NNW,346,0.0,0.0,27,0.00,CLR,,0.00,WeatherDisplay:10.37,2013-08-10 11:06:00,
2013-08-10 07:09:00,73.7,36.7,30.10,NW,323,2.2,4.6,26,0.00,CLR,,0.00,WeatherDisplay:10.37,2013-08-10 11:09:00,
2013-08-10 07:10:00,73.7,36.7,30.10,NW,304,0.0,4.6,26,0.00,CLR,,0.00,WeatherDisplay:10.37,2013-08-10 11:10:00,
2013-08-10 07:11:00,74.0,36.9,30.10,NW,304,0.0,0.0,26,0.00,CLR,,0.00,WeatherDisplay:10.37,2013-08-10 11:11:00,
2013-08-10 07:14:00,73.9,36.8,30.10,NNW,330,0.0,0.0,26,0.00,CLR,,0.00,WeatherDisplay:10.37,2013-08-10 11:14:00,
2013-08-10 07:15:00,73.7,36.7,30.11,NNW,330,0.0,0.0,26,0.00,CLR,,0.00,WeatherDisplay:10.37,2013-08-10 11:15:00,
2013-08-10 07:16:00,74.0,36.9,30.11,West,275,1.5,3.3,26,0.00,CLR,,0.00,WeatherDisplay:10.37,2013-08-10 11:16:00,
2013-08-10 07:17:00,73.8,36.8,30.11,West,275,0.2,4.6,26,0.00,CLR,,0.00,WeatherDisplay:10.37,2013-08-10 11:17:00,
2013-08-10 07:19:00,73.9,36.8,30.10,West,275,0.0,0.0,26,0.00,CLR,,0.00,WeatherDisplay:10.37,2013-08-10 11:19:00,
2013-08-10 07:20:00,74.0,36.9,30.10,West,275,0.0,0.0,26,0.00,CLR,,0.00,WeatherDisplay:10.37,2013-08-10 11:20:00,
2013-08-10 07:21:00,73.9,36.8,30.10,West,275,0.0,0.0,26,0.00,CLR,,0.00,WeatherDisplay:10.37,2013-08-10 11:21:00,
2013-08-10 07:22:00,73.9,36.8,30.10,NW,306,0.7,3.5,26,0.00,CLR,,0.00,WeatherDisplay:10.37,2013-08-10 11:22:00,
2013-08-10 07:24:00,73.9,36.8,30.11,NW,306,0.0,0.0,26,0.00,CLR,,0.00,WeatherDisplay:10.37,2013-08-10 11:24:00,
2013-08-10 07:25:00,74.1,37.0,30.11,NW,306,0.0,0.0,26,0.00,CLR,,0.00,WeatherDisplay:10.37,2013-08-10 11:25:00,
2013-08-10 07:26:00,74.0,35.9,30.11,NW,306,0.0,0.0,25,0.00,CLR,,0.00,WeatherDisplay:10.37,2013-08-10 11:26:00,
2013-08-10 07:27:00,74.0,35.9,30.11,NW,306,0.0,0.0,25,0.00,CLR,,0.00,WeatherDisplay:10.37,2013-08-10 11:27:00,
2013-08-10 07:29:00,74.0,34.9,30.11,NW,306,0.0,0.0,24,0.00,CLR,,0.00,WeatherDisplay:10.37,2013-08-10 11:29:00,
2013-08-10 07:30:00,74.1,35.0,30.11,NW,306,0.0,0.0,24,0.00,CLR,,0.00,WeatherDisplay:10.37,2013-08-10 11:30:00,
2013-08-10 07:31:00,74.1,35.0,30.11,NW,306,0.0,0.0,24,0.00,CLR,,0.00,WeatherDisplay:10.37,2013-08-10 11:31:00,
2013-08-10 07:32:00,74.1,35.0,30.11,NW,306,0.0,0.0,24,0.00,CLR,,0.00,WeatherDisplay:10.37,2013-08-10 11:32:00,
2013-08-10 07:34:00,74.2,35.1,30.11,NW,306,0.0,0.0,24,0.00,CLR,,0.00,WeatherDisplay:10.37,2013-08-10 11:34:00,
2013-08-10 07:35:00,74.1,33.9,30.11,NW,306,0.0,0.0,23,0.00,CLR,,0.00,WeatherDisplay:10.37,2013-08-10 11:35:00,
2013-08-10 07:36:00,74.1,33.9,30.11,NW,306,0.0,0.0,23,0.00,CLR,,0.00,WeatherDisplay:10.37,2013-08-10 11:36:00,
2013-08-10 07:37:00,74.1,33.9,30.11,NW,306,0.0,0.0,23,0.00,CLR,,0.00,WeatherDisplay:10.37,2013-08-10 11:37:00,
2013-08-10 07:38:00,74.1,33.9,30.11,NW,306,0.0,0.0,23,0.00,CLR,,0.00,WeatherDisplay:10.37,2013-08-10 11:38:00,
2013-08-10 07:40:00,74.1,32.8,30.11,NW,306,0.0,0.0,22,0.00,CLR,,0.00,WeatherDisplay:10.37,2013-08-10 11:40:00,
2013-08-10 07:41:00,74.2,34.0,30.11,NW,306,0.0,0.0,23,0.00,CLR,,0.00,WeatherDisplay:10.37,2013-08-10 11:41:00,
2013-08-10 07:42:00,74.1,32.8,30.11,NW,306,0.0,0.0,22,0.00,CLR,,0.00,WeatherDisplay:10.37,2013-08-10 11:42:00,
2013-08-10 07:43:00,74.1,32.8,30.11,NW,306,0.0,0.0,22,0.00,CLR,,0.00,WeatherDisplay:10.37,2013-08-10 11:43:00,
2013-08-10 07:45:00,74.2,32.9,30.11,NW,306,0.0,0.0,22,0.00,CLR,,0.00,WeatherDisplay:10.37,2013-08-10 11:45:00,
2013-08-10 07:46:00,74.2,31.7,30.11,NW,306,0.0,0.0,21,0.00,CLR,,0.00,WeatherDisplay:10.37,2013-08-10 11:46:00,
2013-08-10 07:47:00,74.1,30.4,30.11,NW,306,0.0,0.0,20,0.00,CLR,,0.00,WeatherDisplay:10.37,2013-08-10 11:47:00,
2013-08-10 07:48:00,74.2,30.5,30.11,NW,306,0.0,0.0,20,0.00,CLR,,0.00,WeatherDisplay:10.37,2013-08-10 11:48:00,
2013-08-10 07:50:00,74.2,27.9,30.11,NW,306,0.0,0.0,18,0.00,CLR,,0.00,WeatherDisplay:10.37,2013-08-10 11:50:00,
2013-08-10 07:51:00,74.2,29.3,30.11,NW,306,0.0,0.0,19,0.00,CLR,,0.00,WeatherDisplay:10.37,2013-08-10 11:51:00,
2013-08-10 07:52:00,74.2,29.3,30.11,NW,306,0.0,0.0,19,0.00,CLR,,0.00,WeatherDisplay:10.37,2013-08-10 11:52:00,
2013-08-10 07:53:00,74.2,29.3,30.11,NW,306,0.0,0.0,19,0.00,CLR,,0.00,WeatherDisplay:10.37,2013-08-10 11:53:00,
2013-08-10 07:55:00,74.2,27.9,30.11,NW,306,0.0,0.0,18,0.00,CLR,,0.00,WeatherDisplay:10.37,2013-08-10 11:55:00,
2013-08-10 07:56:00,74.2,29.3,30.11,NW,306,0.0,0.0,19,0.00,CLR,,0.00,WeatherDisplay:10.37,2013-08-10 11:56:00,
2013-08-10 07:57:00,74.2,27.9,30.11,NW,306,0.0,0.0,18,0.00,CLR,,0.00,WeatherDisplay:10.37,2013-08-10 11:57:00,
2013-08-10 07:58:00,74.2,27.9,30.11,NW,306,0.0,0.0,18,0.00,CLR,,0.00,WeatherDisplay:10.37,2013-08-10 11:58:00,
2013-08-10 08:00:00,74.2,29.3,30.11,NW,306,0.0,0.0,19,0.00,CLR,,0.00,WeatherDisplay:10.37,2013-08-10 12:00:00,
2013-08-10 08:02:00,74.3,29.3,30.11,NW,306,0.0,0.0,19,0.00,CLR,,0.00,WeatherDisplay:10.37,2013-08-10 12:02:00,
2013-08-10 08:04:00,74.5,29.5,30.11,NW,306,0.0,0.0,19,0.00,CLR,,0.00,WeatherDisplay:10.37,2013-08-10 12:04:00,
2013-08-10 08:06:00,74.6,25.4,30.11,NW,306,0.0,0.0,16,0.00,CLR,,0.00,WeatherDisplay:10.37,2013-08-10 12:06:00,
2013-08-10 08:07:00,75.1,24.3,30.11,NW,306,0.0,0.0,15,0.00,CLR,,0.00,WeatherDisplay:10.37,2013-08-10 12:07:00,
2013-08-10 08:09:00,75.3,22.8,30.11,NW,306,0.0,0.0,14,0.00,CLR,,0.00,WeatherDisplay:10.37,2013-08-10 12:09:00,
2013-08-10 08:11:00,75.9,13.0,30.11,NW,306,0.0,0.0,9,0.00,CLR,,0.00,WeatherDisplay:10.37,2013-08-10 12:11:00,
2013-08-10 08:12:00,76.2,10.5,30.11,NW,306,0.0,0.0,8,0.00,CLR,,0.00,WeatherDisplay:10.37,2013-08-10 12:12:00,
2013-08-10 08:14:00,76.0,7.4,30.11,NW,306,0.0,0.0,7,0.00,CLR,,0.00,WeatherDisplay:10.37,2013-08-10 12:14:00,
2013-08-10 08:16:00,75.9,10.3,30.11,NW,306,0.0,0.0,8,0.00,CLR,,0.00,WeatherDisplay:10.37,2013-08-10 12:16:00,
2013-08-10 08:17:00,75.7,12.8,30.11,NW,306,0.0,0.0,9,0.00,CLR,,0.00,WeatherDisplay:10.37,2013-08-10 12:17:00,
2013-08-10 08:19:00,75.4,12.6,30.11,NW,306,0.0,0.0,9,0.00,CLR,,0.00,WeatherDisplay:10.37,2013-08-10 12:19:00,
2013-08-10 08:20:00,76.0,13.0,30.11,NW,306,0.0,0.0,9,0.00,CLR,,0.00,WeatherDisplay:10.37,2013-08-10 12:20:00,
2013-08-10 08:21:00,75.7,10.2,30.11,NW,306,0.0,0.0,8,0.00,CLR,,0.00,WeatherDisplay:10.37,2013-08-10 12:21:00,
2013-08-10 08:23:00,75.6,10.1,30.11,NW,306,0.0,0.0,8,0.00,CLR,,0.00,WeatherDisplay:10.37,2013-08-10 12:23:00,
2013-08-10 08:24:00,75.8,7.3,30.11,NW,306,0.0,0.0,7,0.00,CLR,,0.00,WeatherDisplay:10.37,2013-08-10 12:24:00,
2013-08-10 08:26:00,76.2,7.5,30.11,NW,306,0.0,0.0,7,0.00,CLR,,0.00,WeatherDisplay:10.37,2013-08-10 12:26:00,
2013-08-10 08:27:00,75.8,3.9,30.11,NW,306,0.0,0.0,6,0.00,CLR,,0.00,WeatherDisplay:10.37,2013-08-10 12:27:00,
2013-08-10 08:28:00,75.9,3.9,30.11,NW,306,0.0,0.0,6,0.00,CLR,,0.00,WeatherDisplay:10.37,2013-08-10 12:28:00,
2013-08-10 08:29:00,76.2,4.2,30.11,NW,306,0.0,0.0,6,0.00,CLR,,0.00,WeatherDisplay:10.37,2013-08-10 12:29:00,
2013-08-10 08:31:00,76.0,4.0,30.11,NW,306,0.0,0.0,6,0.00,CLR,,0.00,WeatherDisplay:10.37,2013-08-10 12:31:00,
2013-08-10 08:32:00,76.2,4.2,30.11,NW,306,0.0,0.0,6,0.00,CLR,,0.00,WeatherDisplay:10.37,2013-08-10 12:32:00,
2013-08-10 08:33:00,76.3,0.3,30.11,NW,306,0.0,0.0,5,0.00,CLR,,0.00,WeatherDisplay:10.37,2013-08-10 12:33:00,
2013-08-10 08:34:00,76.1,0.2,30.11,NW,306,0.0,0.0,5,0.00,CLR,,0.00,WeatherDisplay:10.37,2013-08-10 12:34:00,
2013-08-10 08:36:00,76.0,4.0,30.11,NW,306,0.0,0.0,6,0.00,CLR,,0.00,WeatherDisplay:10.37,2013-08-10 12:36:00,
2013-08-10 08:37:00,76.4,4.3,30.11,NW,306,0.0,0.0,6,0.00,CLR,,0.00,WeatherDisplay:10.37,2013-08-10 12:37:00,
2013-08-10 08:38:00,76.3,4.2,30.11,NW,306,0.0,0.0,6,0.00,CLR,,0.00,WeatherDisplay:10.37,2013-08-10 12:38:00,
2013-08-10 08:39:00,76.2,4.2,30.11,NW,306,0.0,0.0,6,0.00,CLR,,0.00,WeatherDisplay:10.37,2013-08-10 12:39:00,
2013-08-10 08:42:00,76.6,0.5,30.12,NW,306,0.0,0.0,5,0.00,CLR,,0.00,WeatherDisplay:10.37,2013-08-10 12:42:00,
2013-08-10 08:43:00,76.9,-4.0,30.12,NW,306,0.0,0.0,4,0.00,CLR,,0.00,WeatherDisplay:10.37,2013-08-10 12:43:00,
2013-08-10 08:44:00,77.0,-3.9,30.12,NW,306,0.0,0.0,4,0.00,CLR,,0.00,WeatherDisplay:10.37,2013-08-10 12:44:00,
2013-08-10 08:47:00,77.7,-9.4,30.12,NW,306,0.0,0.0,3,0.00,CLR,,0.00,WeatherDisplay:10.37,2013-08-10 12:47:00,
2013-08-10 08:48:00,76.3,-4.4,30.12,NW,306,0.0,0.0,4,0.00,CLR,,0.00,WeatherDisplay:10.37,2013-08-10 12:48:00,
2013-08-10 08:49:00,77.0,-3.9,30.12,NW,306,0.0,0.0,4,0.00,CLR,,0.00,WeatherDisplay:10.37,2013-08-10 12:49:00,
2013-08-10 08:50:00,76.7,-4.1,30.12,NW,306,0.0,0.0,4,0.00,CLR,,0.00,WeatherDisplay:10.37,2013-08-10 12:50:00,
2013-08-10 08:52:00,76.4,0.4,30.12,NW,306,0.0,0.0,5,0.00,CLR,,0.00,WeatherDisplay:10.37,2013-08-10 12:52:00,
2013-08-10 08:53:00,76.5,-4.3,30.12,NW,306,0.0,0.0,4,0.00,CLR,,0.00,WeatherDisplay:10.37,2013-08-10 12:53:00,
2013-08-10 08:54:00,76.7,-4.1,30.12,NW,306,0.0,0.0,4,0.00,CLR,,0.00,WeatherDisplay:10.37,2013-08-10 12:54:00,
2013-08-10 08:55:00,76.6,-4.2,30.12,NW,306,0.0,0.0,4,0.00,CLR,,0.00,WeatherDisplay:10.37,2013-08-10 12:55:00,
2013-08-10 08:57:00,76.9,0.7,30.12,NW,306,0.0,0.0,5,0.00,CLR,,0.00,WeatherDisplay:10.37,2013-08-10 12:57:00,
2013-08-10 08:58:00,76.8,0.7,30.12,NW,306,0.0,0.0,5,0.00,CLR,,0.00,WeatherDisplay:10.37,2013-08-10 12:58:00,
2013-08-10 08:59:00,76.7,0.6,30.13,NW,306,0.0,0.0,5,0.00,CLR,,0.00,WeatherDisplay:10.37,2013-08-10 12:59:00,
2013-08-10 09:00:00,77.0,0.8,30.13,NW,306,0.0,0.0,5,0.00,CLR,,0.00,WeatherDisplay:10.37,2013-08-10 13:00:00,
2013-08-10 09:02:00,76.7,0.6,30.13,NW,306,0.0,0.0,5,0.00,CLR,,0.00,WeatherDisplay:10.37,2013-08-10 13:02:00,
2013-08-10 09:03:00,76.4,0.4,30.13,NW,306,0.0,0.0,5,0.00,CLR,,0.00,WeatherDisplay:10.37,2013-08-10 13:03:00,
2013-08-10 09:04:00,78.0,-3.2,30.13,NW,306,0.0,0.0,4,0.00,CLR,,0.00,WeatherDisplay:10.37,2013-08-10 13:04:00,
2013-08-10 09:06:00,77.9,-3.3,30.13,NW,306,0.0,0.0,4,0.00,CLR,,0.00,WeatherDisplay:10.37,2013-08-10 13:06:00,
2013-08-10 09:08:00,77.1,-9.8,30.13,NW,306,0.0,0.0,3,0.00,CLR,,0.00,WeatherDisplay:10.37,2013-08-10 13:08:00,
2013-08-10 09:09:00,77.5,-9.5,30.13,NW,306,0.0,0.0,3,0.00,CLR,,0.00,WeatherDisplay:10.37,2013-08-10 13:09:00,
2013-08-10 09:10:00,77.9,-3.3,30.13,NW,306,0.0,0.0,4,0.00,CLR,,0.00,WeatherDisplay:10.37,2013-08-10 13:10:00,
2013-08-10 09:11:00,77.1,-9.8,30.13,NW,306,0.0,0.0,3,0.00,CLR,,0.00,WeatherDisplay:10.37,2013-08-10 13:11:00,
2013-08-10 09:13:00,77.7,-9.4,30.12,NW,306,0.0,0.0,3,0.00,CLR,,0.00,WeatherDisplay:10.37,2013-08-10 13:13:00,
2013-08-10 09:14:00,77.3,-9.7,30.12,NW,306,0.0,0.0,3,0.00,CLR,,0.00,WeatherDisplay:10.37,2013-08-10 13:14:00,
2013-08-10 09:16:00,78.2,-3.1,30.13,NW,306,0.0,0.0,4,0.00,CLR,,0.00,WeatherDisplay:10.37,2013-08-10 13:16:00,
2013-08-10 09:18:00,77.7,-3.4,30.13,NW,306,0.0,0.0,4,0.00,CLR,,0.00,WeatherDisplay:10.37,2013-08-10 13:18:00,
2013-08-10 09:19:00,77.1,-3.9,30.12,NW,306,0.0,0.0,4,0.00,CLR,,0.00,WeatherDisplay:10.37,2013-08-10 13:19:00,
2013-08-10 09:21:00,77.3,-9.7,30.13,NW,306,0.0,0.0,3,0.00,CLR,,0.00,WeatherDisplay:10.37,2013-08-10 13:21:00,
2013-08-10 09:23:00,77.4,-9.6,30.12,NW,306,0.0,0.0,3,0.00,CLR,,0.00,WeatherDisplay:10.37,2013-08-10 13:23:00,
2013-08-10 09:24:00,77.7,-17.5,30.13,NW,306,0.0,0.0,2,0.00,CLR,,0.00,WeatherDisplay:10.37,2013-08-10 13:24:00,
2013-08-10 09:25:00,77.7,-17.5,30.13,NW,306,0.0,0.0,2,0.00,CLR,,0.00,WeatherDisplay:10.37,2013-08-10 13:25:00,
2013-08-10 09:26:00,79.7,-16.2,30.13,NW,306,0.0,0.0,2,0.00,CLR,,0.00,WeatherDisplay:10.37,2013-08-10 13:26:00,
2013-08-10 09:28:00,80.5,-15.7,30.12,NW,306,0.0,0.0,2,0.00,CLR,,0.00,WeatherDisplay:10.37,2013-08-10 13:28:00,
2013-08-10 09:29:00,79.5,-16.3,30.13,NW,306,0.0,0.0,2,0.00,CLR,,0.00,WeatherDisplay:10.37,2013-08-10 13:29:00,
2013-08-10 09:30:00,80.1,-15.9,30.13,NW,306,0.0,0.0,2,0.00,CLR,,0.00,WeatherDisplay:10.37,2013-08-10 13:30:00,
2013-08-10 09:31:00,79.5,-16.3,30.13,NW,306,0.0,0.0,2,0.00,CLR,,0.00,WeatherDisplay:10.37,2013-08-10 13:31:00,
2013-08-10 09:34:00,80.2,-15.9,30.12,NW,306,0.0,0.0,2,0.00,CLR,,0.00,WeatherDisplay:10.37,2013-08-10 13:34:00,
2013-08-10 09:35:00,80.2,-15.9,30.12,NW,306,0.0,0.0,2,0.00,CLR,,0.00,WeatherDisplay:10.37,2013-08-10 13:35:00,
2013-08-10 09:36:00,80.0,-16.0,30.12,NW,306,0.0,0.0,2,0.00,CLR,,0.00,WeatherDisplay:10.37,2013-08-10 13:36:00,
2013-08-10 09:37:00,80.0,-16.0,30.12,NW,306,0.0,0.0,2,0.00,CLR,,0.00,WeatherDisplay:10.37,2013-08-10 13:37:00,
2013-08-10 09:39:00,82.0,-14.7,30.12,NW,306,0.0,0.0,2,0.00,CLR,,0.00,WeatherDisplay:10.37,2013-08-10 13:39:00,
2013-08-10 09:40:00,81.2,-15.2,30.12,NW,306,0.0,0.0,2,0.00,CLR,,0.00,WeatherDisplay:10.37,2013-08-10 13:40:00,
2013-08-10 09:42:00,81.5,-15.0,30.12,West,267,3.9,6.9,2,0.00,CLR,,0.00,WeatherDisplay:10.37,2013-08-10 13:42:00,
2013-08-10 09:44:00,79.8,-16.1,30.12,West,267,0.0,0.0,2,0.00,CLR,,0.00,WeatherDisplay:10.37,2013-08-10 13:44:00,
2013-08-10 09:45:00,79.5,-16.3,30.12,West,267,0.0,0.0,2,0.00,CLR,,0.00,WeatherDisplay:10.37,2013-08-10 13:45:00,
2013-08-10 09:47:00,79.7,-16.2,30.12,West,267,0.0,0.0,2,0.00,CLR,,0.00,WeatherDisplay:10.37,2013-08-10 13:47:00,
2013-08-10 09:49:00,79.7,-16.2,30.12,West,267,0.0,0.0,2,0.00,CLR,,0.00,WeatherDisplay:10.37,2013-08-10 13:49:00,
2013-08-10 09:50:00,78.0,-17.3,30.12,West,267,0.0,0.0,2,0.00,CLR,,0.00,WeatherDisplay:10.37,2013-08-10 13:50:00,
2013-08-10 09:52:00,78.2,-17.2,30.12,West,267,0.0,0.0,2,0.00,CLR,,0.00,WeatherDisplay:10.37,2013-08-10 13:52:00,
2013-08-10 09:53:00,78.1,-17.2,30.13,West,267,0.0,0.0,2,0.00,CLR,,0.00,WeatherDisplay:10.37,2013-08-10 13:53:00,
2013-08-10 09:55:00,78.3,-9.0,30.13,West,261,0.0,0.0,3,0.00,CLR,,0.00,WeatherDisplay:10.37,2013-08-10 13:55:00,
2013-08-10 09:56:00,78.7,-8.7,30.13,West,261,0.0,0.0,3,0.00,CLR,,0.00,WeatherDisplay:10.37,2013-08-10 13:56:00,
2013-08-10 09:57:00,77.8,-9.3,30.13,West,261,0.0,0.0,3,0.00,CLR,,0.00,WeatherDisplay:10.37,2013-08-10 13:57:00,
2013-08-10 09:58:00,77.3,-9.7,30.13,West,261,0.0,0.0,3,0.00,CLR,,0.00,WeatherDisplay:10.37,2013-08-10 13:58:00,
2013-08-10 10:00:00,77.7,-9.4,30.13,NW,305,1.7,5.8,3,0.00,CLR,,0.00,WeatherDisplay:10.37,2013-08-10 14:00:00,
2013-08-10 10:01:00,77.2,-9.7,30.13,WNW,282,4.3,5.8,3,0.00,CLR,,0.00,WeatherDisplay:10.37,2013-08-10 14:01:00,
2013-08-10 10:02:00,78.0,-9.2,30.13,West,277,5.7,6.9,3,0.00,CLR,,0.00,WeatherDisplay:10.37,2013-08-10 14:02:00,
2013-08-10 10:03:00,77.7,-9.4,30.13,West,267,4.9,8.1,3,0.00,CLR,,0.00,WeatherDisplay:10.37,2013-08-10 14:03:00,
2013-08-10 10:05:00,77.7,-9.4,30.13,WNW,298,4.1,5.8,3,0.00,CLR,,0.00,WeatherDisplay:10.37,2013-08-10 14:05:00,
2013-08-10 10:06:00,78.5,-8.9,30.13,North,349,4.9,5.8,3,0.00,CLR,,0.00,WeatherDisplay:10.37,2013-08-10 14:06:00,
2013-08-10 10:07:00,77.3,-9.7,30.12,NNW,342,0.0,4.6,3,0.00,CLR,,0.00,WeatherDisplay:10.37,2013-08-10 14:07:00,
2013-08-10 10:08:00,77.4,-9.6,30.12,NNW,342,0.0,0.0,3,0.00,CLR,,0.00,WeatherDisplay:10.37,2013-08-10 14:08:00,
2013-08-10 10:10:00,77.9,-17.3,30.12,NW,319,4.2,5.8,2,0.00,CLR,,0.00,WeatherDisplay:10.37,2013-08-10 14:10:00,
2013-08-10 10:11:00,77.8,-17.4,30.12,NW,312,3.5,5.8,2,0.00,CLR,,0.00,WeatherDisplay:10.37,2013-08-10 14:11:00,
2013-08-10 10:13:00,77.7,-17.5,30.12,WSW,257,5.1,6.9,2,0.00,CLR,,0.00,WeatherDisplay:10.37,2013-08-10 14:13:00,
2013-08-10 10:15:00,78.7,-8.7,30.13,WSW,257,0.0,0.0,3,0.00,CLR,,0.00,WeatherDisplay:10.37,2013-08-10 14:15:00,
2013-08-10 10:16:00,78.5,-17.0,30.13,WSW,257,0.0,0.0,2,0.00,CLR,,0.00,WeatherDisplay:10.37,2013-08-10 14:16:00,
2013-08-10 10:18:00,78.0,-17.3,30.12,WSW,257,0.0,0.0,2,0.00,CLR,,0.00,WeatherDisplay:10.37,2013-08-10 14:18:00,
2013-08-10 10:21:00,79.1,-16.6,30.12,WSW,248,0.4,0.0,2,0.00,CLR,,0.00,WeatherDisplay:10.37,2013-08-10 14:21:00,
2013-08-10 10:22:00,79.8,-16.1,30.12,WSW,248,0.2,2.3,2,0.00,CLR,,0.00,WeatherDisplay:10.37,2013-08-10 14:22:00,
2013-08-10 10:23:00,79.1,-16.6,30.12,WSW,248,0.0,0.0,2,0.00,CLR,,0.00,WeatherDisplay:10.37,2013-08-10 14:23:00,
2013-08-10 10:24:00,79.9,-16.1,30.12,WSW,248,0.0,0.0,2,0.00,CLR,,0.00,WeatherDisplay:10.37,2013-08-10 14:24:00,
2013-08-10 10:26:00,80.9,-15.4,30.12,WSW,248,0.0,0.0,2,0.00,CLR,,0.00,WeatherDisplay:10.37,2013-08-10 14:26:00,
2013-08-10 10:27:00,80.4,-15.7,30.12,WSW,248,0.0,0.0,2,0.00,CLR,,0.00,WeatherDisplay:10.37,2013-08-10 14:27:00,
2013-08-10 10:28:00,81.3,-15.2,30.12,WSW,248,0.0,0.0,2,0.00,CLR,,0.00,WeatherDisplay:10.37,2013-08-10 14:28:00,
2013-08-10 10:29:00,80.8,-15.5,30.12,WSW,248,0.0,0.0,2,0.00,CLR,,0.00,WeatherDisplay:10.37,2013-08-10 14:29:00,
2013-08-10 10:31:00,81.6,-15.0,30.12,NW,325,5.1,8.1,2,0.00,CLR,,0.00,WeatherDisplay:10.37,2013-08-10 14:31:00,
2013-08-10 10:32:00,81.6,-15.0,30.12,West,278,4.3,8.1,2,0.00,CLR,,0.00,WeatherDisplay:10.37,2013-08-10 14:32:00,
2013-08-10 10:33:00,81.1,-15.3,30.12,WSW,254,5.0,5.8,2,0.00,CLR,,0.00,WeatherDisplay:10.37,2013-08-10 14:33:00,
2013-08-10 10:34:00,81.4,-15.1,30.12,West,261,4.1,7.2,2,0.00,CLR,,0.00,WeatherDisplay:10.37,2013-08-10 14:34:00,
2013-08-10 10:36:00,80.9,-15.4,30.12,SW,230,5.2,6.9,2,0.00,CLR,,0.00,WeatherDisplay:10.37,2013-08-10 14:36:00,
2013-08-10 10:37:00,81.3,-15.2,30.12,SW,233,5.3,6.9,2,0.00,CLR,,0.00,WeatherDisplay:10.37,2013-08-10 14:37:00,
2013-08-10 10:38:00,81.0,-15.3,30.12,WSW,247,4.9,6.9,2,0.00,CLR,,0.00,WeatherDisplay:10.37,2013-08-10 14:38:00,
2013-08-10 10:39:00,80.4,-15.7,30.12,SSW,209,3.9,6.9,2,0.00,CLR,,0.00,WeatherDisplay:10.37,2013-08-10 14:39:00,
2013-08-10 10:41:00,80.9,-15.4,30.12,WSW,258,3.4,6.9,2,0.00,CLR,,0.00,WeatherDisplay:10.37,2013-08-10 14:41:00,
2013-08-10 10:42:00,81.1,-15.3,30.12,SW,226,2.0,6.9,2,0.00,CLR,,0.00,WeatherDisplay:10.37,2013-08-10 14:42:00,
2013-08-10 10:44:00,81.3,-15.2,30.12,WNW,289,1.7,5.8,2,0.00,CLR,,0.00,WeatherDisplay:10.37,2013-08-10 14:44:00,
2013-08-10 10:47:00,81.3,-15.2,30.13,NW,304,3.2,5.8,2,0.00,CLR,,0.00,WeatherDisplay:10.37,2013-08-10 14:47:00,
2013-08-10 10:49:00,80.0,-16.0,30.13,WSW,243,2.8,4.6,2,0.00,CLR,,0.00,WeatherDisplay:10.37,2013-08-10 14:49:00,
2013-08-10 10:50:00,80.9,-15.4,30.13,WSW,240,3.8,5.8,2,0.00,CLR,,0.00,WeatherDisplay:10.37,2013-08-10 14:50:00,
2013-08-10 10:52:00,80.5,-15.7,30.13,North,357,3.7,5.8,2,0.00,CLR,,0.00,WeatherDisplay:10.37,2013-08-10 14:52:00,
2013-08-10 10:54:00,80.2,-15.9,30.13,WNW,298,3.8,5.8,2,0.00,CLR,,0.00,WeatherDisplay:10.37,2013-08-10 14:54:00,
2013-08-10 10:55:00,80.5,-15.7,30.13,North,4,4.8,5.8,2,0.00,CLR,,0.00,WeatherDisplay:10.37,2013-08-10 14:55:00,
2013-08-10 10:57:00,80.6,-15.6,30.13,NW,319,2.4,7.4,2,0.00,CLR,,0.00,WeatherDisplay:10.37,2013-08-10 14:57:00,
2013-08-10 10:58:00,80.5,-15.7,30.13,NW,319,4.5,6.9,2,0.00,CLR,,0.00,WeatherDisplay:10.37,2013-08-10 14:58:00,
2013-08-10 10:59:00,79.9,-16.1,30.13,NW,319,0.0,0.0,2,0.00,CLR,,0.00,WeatherDisplay:10.37,2013-08-10 14:59:00,
2013-08-10 11:00:00,80.7,-15.5,30.13,SSW,213,3.7,3.7,2,0.00,CLR,,0.00,WeatherDisplay:10.37,2013-08-10 15:00:00,
2013-08-10 11:02:00,81.5,-15.0,30.13,SSW,198,1.9,5.9,2,0.00,CLR,,0.00,WeatherDisplay:10.37,2013-08-10 15:02:00,
2013-08-10 11:03:00,82.1,-14.6,30.13,WSW,251,5.2,8.1,2,0.00,CLR,,0.00,WeatherDisplay:10.37,2013-08-10 15:03:00,
2013-08-10 11:04:00,81.6,-15.0,30.13,West,268,4.9,6.9,2,0.00,CLR,,0.00,WeatherDisplay:10.37,2013-08-10 15:04:00,
2013-08-10 11:06:00,82.2,-14.6,30.13,WNW,288,5.1,10.4,2,0.00,CLR,,0.00,WeatherDisplay:10.37,2013-08-10 15:06:00,
2013-08-10 11:07:00,81.8,-14.8,30.13,SW,233,4.6,6.9,2,0.00,CLR,,0.00,WeatherDisplay:10.37,2013-08-10 15:07:00,
2013-08-10 11:08:00,82.2,-14.6,30.13,WNW,298,2.6,5.8,2,0.00,CLR,,0.00,WeatherDisplay:10.37,2013-08-10 15:08:00,
2013-08-10 11:10:00,82.4,-14.4,30.13,WNW,294,1.7,5.8,2,0.00,CLR,,0.00,WeatherDisplay:10.37,2013-08-10 15:10:00,
2013-08-10 11:11:00,80.8,-15.5,30.13,NW,306,4.2,5.8,2,0.00,CLR,,0.00,WeatherDisplay:10.37,2013-08-10 15:11:00,
2013-08-10 11:12:00,81.4,-15.1,30.13,WSW,254,2.1,5.8,2,0.00,CLR,,0.00,WeatherDisplay:10.37,2013-08-10 15:12:00,
2013-08-10 11:13:00,81.5,-15.0,30.13,WSW,257,3.0,5.8,2,0.00,CLR,,0.00,WeatherDisplay:10.37,2013-08-10 15:13:00,
2013-08-10 11:14:00,81.7,-14.9,30.13,WSW,241,4.9,6.9,2,0.00,CLR,,0.00,WeatherDisplay:10.37,2013-08-10 15:14:00,
2013-08-10 11:15:00,81.0,-15.3,30.13,WNW,302,3.7,6.3,2,0.00,CLR,,0.00,WeatherDisplay:10.37,2013-08-10 15:15:00,
2013-08-10 11:16:00,81.3,-15.2,30.13,NW,312,3.0,4.6,2,0.00,CLR,,0.00,WeatherDisplay:10.37,2013-08-10 15:16:00,
2013-08-10 11:17:00,80.2,-15.9,30.13,NW,306,0.3,3.5,2,0.00,CLR,,0.00,WeatherDisplay:10.37,2013-08-10 15:17:00,
2013-08-10 11:18:00,80.4,-15.7,30.13,NW,306,0.1,3.5,2,0.00,CLR,,0.00,WeatherDisplay:10.37,2013-08-10 15:18:00,
2013-08-10 11:19:00,80.5,-15.7,30.13,North,7,0.9,4.6,2,0.00,CLR,,0.00,WeatherDisplay:10.37,2013-08-10 15:19:00,
2013-08-10 11:20:00,80.4,-15.7,30.13,NW,323,2.1,4.6,2,0.00,CLR,,0.00,WeatherDisplay:10.37,2013-08-10 15:20:00,
2013-08-10 11:21:00,80.1,-15.9,30.13,SW,215,6.5,9.2,2,0.00,CLR,,0.00,WeatherDisplay:10.37,2013-08-10 15:21:00,
2013-08-10 11:23:00,79.8,-16.1,30.13,WNW,289,4.7,9.2,2,0.00,CLR,,0.00,WeatherDisplay:10.37,2013-08-10 15:23:00,
2013-08-10 11:24:00,81.1,-15.3,30.13,North,356,0.5,3.5,2,0.00,CLR,,0.00,WeatherDisplay:10.37,2013-08-10 15:24:00,
2013-08-10 11:26:00,80.0,-16.0,30.13,North,356,0.0,0.0,2,0.00,CLR,,0.00,WeatherDisplay:10.37,2013-08-10 15:26:00,
2013-08-10 11:28:00,80.5,-15.7,30.13,North,356,0.0,0.0,2,0.00,CLR,,0.00,WeatherDisplay:10.37,2013-08-10 15:28:00,
2013-08-10 11:29:00,80.5,-15.7,30.13,North,360,0.1,4.2,2,0.00,CLR,,0.00,WeatherDisplay:10.37,2013-08-10 15:29:00,
2013-08-10 11:31:00,80.4,-15.7,30.13,North,360,0.0,4.6,2,0.00,CLR,,0.00,WeatherDisplay:10.37,2013-08-10 15:31:00,
2013-08-10 11:33:00,81.3,-15.2,30.13,West,265,0.3,4.6,2,0.00,CLR,,0.00,WeatherDisplay:10.37,2013-08-10 15:33:00,
2013-08-10 11:35:00,82.4,-14.4,30.13,West,265,0.0,0.0,2,0.00,CLR,,0.00,WeatherDisplay:10.37,2013-08-10 15:35:00,
2013-08-10 11:36:00,82.5,-14.4,30.13,West,265,0.0,3.4,2,0.00,CLR,,0.00,WeatherDisplay:10.37,2013-08-10 15:36:00,
2013-08-10 11:37:00,82.3,-14.5,30.13,WNW,302,2.7,6.3,2,0.00,CLR,,0.00,WeatherDisplay:10.37,2013-08-10 15:37:00,
2013-08-10 11:38:00,81.4,-15.1,30.13,WSW,256,3.0,6.9,2,0.00,CLR,,0.00,WeatherDisplay:10.37,2013-08-10 15:38:00,
2013-08-10 11:39:00,80.5,-15.7,30.13,WSW,256,0.2,4.6,2,0.00,CLR,,0.00,WeatherDisplay:10.37,2013-08-10 15:39:00,
2013-08-10 11:40:00,80.8,-15.5,30.13,NW,312,2.3,0.0,2,0.00,CLR,,0.00,WeatherDisplay:10.37,2013-08-10 15:40:00,
2013-08-10 11:41:00,81.1,-15.3,30.13,WNW,282,3.6,5.8,2,0.00,CLR,,0.00,WeatherDisplay:10.37,2013-08-10 15:41:00,
2013-08-10 11:42:00,81.8,-14.8,30.13,North,8,3.2,6.9,2,0.00,CLR,,0.00,WeatherDisplay:10.37,2013-08-10 15:42:00,
2013-08-10 11:43:00,80.9,-15.4,30.13,WNW,296,3.2,4.7,2,0.00,CLR,,0.00,WeatherDisplay:10.37,2013-08-10 15:43:00,
2013-08-10 11:44:00,81.3,-15.2,30.13,WNW,298,4.8,6.9,2,0.00,CLR,,0.00,WeatherDisplay:10.37,2013-08-10 15:44:00,
2013-08-10 11:45:00,80.6,-15.6,30.13,WNW,296,4.7,6.9,2,0.00,CLR,,0.00,WeatherDisplay:10.37,2013-08-10 15:45:00,
2013-08-10 11:46:00,80.5,-15.7,30.13,WNW,296,1.1,6.9,2,0.00,CLR,,0.00,WeatherDisplay:10.37,2013-08-10 15:46:00,
2013-08-10 11:47:00,80.0,-16.0,30.13,WNW,296,0.0,3.5,2,0.00,CLR,,0.00,WeatherDisplay:10.37,2013-08-10 15:47:00,
2013-08-10 11:48:00,80.2,-15.9,30.13,WNW,296,0.0,0.0,2,0.00,CLR,,0.00,WeatherDisplay:10.37,2013-08-10 15:48:00,
2013-08-10 11:49:00,79.9,-16.1,30.13,WNW,296,0.0,0.0,2,0.00,CLR,,0.00,WeatherDisplay:10.37,2013-08-10 15:49:00,
2013-08-10 11:50:00,81.4,-15.1,30.13,NW,325,1.5,4.6,2,0.00,CLR,,0.00,WeatherDisplay:10.37,2013-08-10 15:50:00,
2013-08-10 11:51:00,81.4,-15.1,30.13,WNW,294,0.3,4.6,2,0.00,CLR,,0.00,WeatherDisplay:10.37,2013-08-10 15:51:00,
2013-08-10 11:52:00,81.1,-15.3,30.13,West,270,0.0,3.5,2,0.00,CLR,,0.00,WeatherDisplay:10.37,2013-08-10 15:52:00,
2013-08-10 11:53:00,81.8,-14.8,30.13,NW,315,1.1,4.6,2,0.00,CLR,,0.00,WeatherDisplay:10.37,2013-08-10 15:53:00,
2013-08-10 11:54:00,81.1,-15.3,30.13,NW,319,1.5,4.6,2,0.00,CLR,,0.00,WeatherDisplay:10.37,2013-08-10 15:54:00,
2013-08-10 11:56:00,81.5,-15.0,30.13,WSW,243,0.3,4.6,2,0.00,CLR,,0.00,WeatherDisplay:10.37,2013-08-10 15:56:00,
2013-08-10 11:57:00,81.3,-15.2,30.13,WSW,257,5.3,8.1,2,0.00,CLR,,0.00,WeatherDisplay:10.37,2013-08-10 15:57:00,
2013-08-10 11:58:00,80.5,-15.7,30.13,WSW,257,1.0,8.1,2,0.00,CLR,,0.00,WeatherDisplay:10.37,2013-08-10 15:58:00,
2013-08-10 11:59:00,81.5,-15.0,30.13,North,356,1.7,5.8,2,0.00,CLR,,0.00,WeatherDisplay:10.37,2013-08-10 15:59:00,
2013-08-10 12:01:00,80.9,-15.4,30.13,NW,316,4.2,6.9,2,0.00,CLR,,0.00,WeatherDisplay:10.37,2013-08-10 16:01:00,
2013-08-10 12:02:00,81.3,-15.2,30.13,WNW,288,5.4,6.9,2,0.00,CLR,,0.00,WeatherDisplay:10.37,2013-08-10 16:02:00,
2013-08-10 12:03:00,81.2,-15.2,30.13,NW,325,5.1,6.9,2,0.00,CLR,,0.00,WeatherDisplay:10.37,2013-08-10 16:03:00,
2013-08-10 12:04:00,81.5,-15.0,30.12,NNW,339,3.5,5.8,2,0.00,CLR,,0.00,WeatherDisplay:10.37,2013-08-10 16:04:00,
2013-08-10 12:06:00,80.4,-15.7,30.12,WNW,285,5.7,10.4,2,0.00,CLR,,0.00,WeatherDisplay:10.37,2013-08-10 16:06:00,
2013-08-10 12:08:00,81.0,-15.3,30.13,West,270,6.1,10.4,2,0.00,CLR,,0.00,WeatherDisplay:10.37,2013-08-10 16:08:00,
2013-08-10 12:09:00,80.3,-15.8,30.12,West,281,4.7,9.2,2,0.00,CLR,,0.00,WeatherDisplay:10.37,2013-08-10 16:09:00,
2013-08-10 12:12:00,80.6,-15.6,30.12,NW,312,4.0,6.9,2,0.00,CLR,,0.00,WeatherDisplay:10.37,2013-08-10 16:12:00,
2013-08-10 12:13:00,81.5,-15.0,30.12,WSW,244,2.5,5.8,2,0.00,CLR,,0.00,WeatherDisplay:10.37,2013-08-10 16:13:00,
2013-08-10 12:15:00,81.3,-15.2,30.12,SW,233,6.0,11.5,2,0.00,CLR,,0.00,WeatherDisplay:10.37,2013-08-10 16:15:00,
2013-08-10 12:18:00,81.0,-15.3,30.12,SW,215,5.4,8.1,2,0.00,CLR,,0.00,WeatherDisplay:10.37,2013-08-10 16:18:00,
2013-08-10 12:19:00,81.5,-15.0,30.12,SW,232,5.9,8.1,2,0.00,CLR,,0.00,WeatherDisplay:10.37,2013-08-10 16:19:00,
2013-08-10 12:20:00,80.6,-15.6,30.12,WNW,287,9.5,13.8,2,0.00,CLR,,0.00,WeatherDisplay:10.37,2013-08-10 16:20:00,
2013-08-10 12:23:00,80.9,-15.4,30.12,West,281,8.0,12.4,2,0.00,CLR,,0.00,WeatherDisplay:10.37,2013-08-10 16:23:00,
2013-08-10 12:24:00,80.3,-15.8,30.12,WNW,302,7.7,12.7,2,0.00,CLR,,0.00,WeatherDisplay:10.37,2013-08-10 16:24:00,
2013-08-10 12:26:00,80.5,-15.7,30.12,SW,227,3.4,9.2,2,0.00,CLR,,0.00,WeatherDisplay:10.37,2013-08-10 16:26:00,
2013-08-10 12:28:00,80.9,-15.4,30.12,WSW,258,3.4,9.2,2,0.00,CLR,,0.00,WeatherDisplay:10.37,2013-08-10 16:28:00,
2013-08-10 12:29:00,80.4,-15.7,30.12,NW,319,5.8,5.8,2,0.00,CLR,,0.00,WeatherDisplay:10.37,2013-08-10 16:29:00,
2013-08-10 12:31:00,81.4,-15.1,30.12,North,1,6.1,9.2,2,0.00,CLR,,0.00,WeatherDisplay:10.37,2013-08-10 16:31:00,
2013-08-10 12:33:00,81.1,-15.3,30.12,NW,309,2.8,5.8,2,0.00,CLR,,0.00,WeatherDisplay:10.37,2013-08-10 16:33:00,
2013-08-10 12:34:00,80.5,-15.7,30.12,WSW,239,5.6,6.9,2,0.00,CLR,,0.00,WeatherDisplay:10.37,2013-08-10 16:34:00,
2013-08-10 12:35:00,81.3,-15.2,30.12,WNW,285,4.1,6.9,2,0.00,CLR,,0.00,WeatherDisplay:10.37,2013-08-10 16:35:00,
2013-08-10 12:36:00,81.4,-15.1,30.12,WSW,256,5.0,8.1,2,0.00,CLR,,0.00,WeatherDisplay:10.37,2013-08-10 16:36:00,
2013-08-10 12:38:00,81.3,-15.2,30.12,South,179,4.5,8.1,2,0.00,CLR,,0.00,WeatherDisplay:10.37,2013-08-10 16:38:00,
2013-08-10 12:40:00,81.1,-15.3,30.11,SW,234,3.2,9.6,2,0.00,CLR,,0.00,WeatherDisplay:10.37,2013-08-10 16:40:00,
2013-08-10 12:41:00,81.6,-15.0,30.11,West,277,2.4,10.4,2,0.00,CLR,,0.00,WeatherDisplay:10.37,2013-08-10 16:41:00,
2013-08-10 12:43:00,82.1,-14.6,30.11,West,275,2.3,6.9,2,0.00,CLR,,0.00,WeatherDisplay:10.37,2013-08-10 16:43:00,
2013-08-10 12:44:00,81.3,-15.2,30.11,SSW,199,2.3,8.5,2,0.00,CLR,,0.00,WeatherDisplay:10.37,2013-08-10 16:44:00,
2013-08-10 12:45:00,81.2,-15.2,30.11,North,360,3.4,8.1,2,0.00,CLR,,0.00,WeatherDisplay:10.37,2013-08-10 16:45:00,
2013-08-10 12:46:00,82.6,-14.3,30.11,NW,308,5.3,6.9,2,0.00,CLR,,0.00,WeatherDisplay:10.37,2013-08-10 16:46:00,
2013-08-10 12:48:00,83.3,-13.9,30.11,West,278,1.2,4.7,2,0.00,CLR,,0.00,WeatherDisplay:10.37,2013-08-10 16:48:00,
2013-08-10 12:49:00,84.6,-13.0,30.11,SSW,196,2.8,3.5,2,0.00,CLR,,0.00,WeatherDisplay:10.37,2013-08-10 16:49:00,
2013-08-10 12:50:00,85.5,-12.5,30.11,SW,216,5.5,8.6,2,0.00,CLR,,0.00,WeatherDisplay:10.37,2013-08-10 16:50:00,
2013-08-10 12:51:00,84.9,-12.8,30.11,WSW,254,7.2,9.2,2,0.00,CLR,,0.00,WeatherDisplay:10.37,2013-08-10 16:51:00,
2013-08-10 12:54:00,83.9,-13.5,30.11,SW,236,8.7,12.7,2,0.00,CLR,,0.00,WeatherDisplay:10.37,2013-08-10 16:54:00,
2013-08-10 12:55:00,82.1,-14.6,30.11,WSW,244,5.4,11.5,2,0.00,CLR,,0.00,WeatherDisplay:10.37,2013-08-10 16:55:00,
2013-08-10 12:56:00,82.1,-14.6,30.11,WSW,239,6.4,8.1,2,0.00,CLR,,0.00,WeatherDisplay:10.37,2013-08-10 16:56:00,
2013-08-10 12:59:00,82.3,-14.5,30.10,WNW,296,6.1,9.2,2,0.00,CLR,,0.00,WeatherDisplay:10.37,2013-08-10 16:59:00,
2013-08-10 13:00:00,84.2,-13.3,30.11,West,265,4.0,8.1,2,0.00,CLR,,0.00,WeatherDisplay:10.37,2013-08-10 17:00:00,
2013-08-10 13:01:00,83.8,-13.6,30.11,West,264,4.6,8.1,2,0.00,CLR,,0.00,WeatherDisplay:10.37,2013-08-10 17:01:00,
2013-08-10 13:04:00,86.7,-11.7,30.10,NW,306,1.7,10.4,2,0.00,CLR,,0.00,WeatherDisplay:10.37,2013-08-10 17:04:00,
2013-08-10 13:05:00,87.9,-10.9,30.10,SSW,206,0.4,3.0,2,0.00,CLR,,0.00,WeatherDisplay:10.37,2013-08-10 17:05:00,
2013-08-10 13:06:00,87.7,-11.1,30.10,West,274,1.7,5.9,2,0.00,CLR,,0.00,WeatherDisplay:10.37,2013-08-10 17:06:00,
2013-08-10 13:09:00,88.6,-10.5,30.10,WNW,299,5.6,9.4,2,0.00,CLR,,0.00,WeatherDisplay:10.37,2013-08-10 17:09:00,
2013-08-10 13:10:00,88.7,-10.4,30.10,West,260,7.6,10.4,2,0.00,CLR,,0.00,WeatherDisplay:10.37,2013-08-10 17:10:00,
2013-08-10 13:11:00,88.4,-10.6,30.10,NW,304,6.4,10.4,2,0.00,CLR,,0.00,WeatherDisplay:10.37,2013-08-10 17:11:00,
2013-08-10 13:12:00,88.2,-10.7,30.10,WNW,285,4.0,8.1,2,0.00,CLR,,0.00,WeatherDisplay:10.37,2013-08-10 17:12:00,
2013-08-10 13:15:00,86.7,-11.7,30.10,SSW,212,3.8,10.4,2,0.00,CLR,,0.00,WeatherDisplay:10.37,2013-08-10 17:15:00,
2013-08-10 13:16:00,87.2,-11.4,30.10,West,263,5.8,6.9,2,0.00,CLR,,0.00,WeatherDisplay:10.37,2013-08-10 17:16:00,
2013-08-10 13:17:00,86.9,-11.6,30.10,WNW,284,8.4,10.5,2,0.00,CLR,,0.00,WeatherDisplay:10.37,2013-08-10 17:17:00,
2013-08-10 13:20:00,84.6,-13.0,30.10,West,261,5.3,10.4,2,0.00,CLR,,0.00,WeatherDisplay:10.37,2013-08-10 17:20:00,
2013-08-10 13:21:00,86.0,-12.1,30.10,WNW,298,5.3,9.2,2,0.00,CLR,,0.00,WeatherDisplay:10.37,2013-08-10 17:21:00,
2013-08-10 13:22:00,84.6,-13.0,30.10,SW,232,6.3,12.7,2,0.00,CLR,,0.00,WeatherDisplay:10.37,2013-08-10 17:22:00,
2013-08-10 13:25:00,84.3,-13.2,30.10,WNW,294,4.5,6.9,2,0.00,CLR,,0.00,WeatherDisplay:10.37,2013-08-10 17:25:00,
2013-08-10 13:26:00,84.1,-13.4,30.10,WNW,284,2.6,8.1,2,0.00,CLR,,0.00,WeatherDisplay:10.37,2013-08-10 17:26:00,
2013-08-10 13:27:00,85.4,-12.5,30.10,West,263,7.8,9.8,2,0.00,CLR,,0.00,WeatherDisplay:10.37,2013-08-10 17:27:00,
2013-08-10 13:30:00,83.0,-14.1,30.10,WSW,256,6.5,11.5,2,0.00,CLR,,0.00,WeatherDisplay:10.37,2013-08-10 17:30:00,
2013-08-10 13:31:00,82.5,-14.4,30.10,SW,234,8.2,10.4,2,0.00,CLR,,0.00,WeatherDisplay:10.37,2013-08-10 17:31:00,
2013-08-10 13:32:00,83.5,-13.7,30.10,WSW,256,7.9,12.7,2,0.00,CLR,,0.00,WeatherDisplay:10.37,2013-08-10 17:32:00,
2013-08-10 13:35:00,84.5,-13.1,30.10,WSW,254,9.4,15.0,2,0.00,CLR,,0.00,WeatherDisplay:10.37,2013-08-10 17:35:00,
2013-08-10 13:36:00,83.6,-13.7,30.10,NW,312,7.0,15.0,2,0.00,CLR,,0.00,WeatherDisplay:10.37,2013-08-10 17:36:00,
2013-08-10 13:37:00,84.7,-13.0,30.10,WSW,243,3.1,8.1,2,0.00,CLR,,0.00,WeatherDisplay:10.37,2013-08-10 17:37:00,
2013-08-10 13:38:00,85.4,-12.5,30.10,North,3,2.7,8.1,2,0.00,CLR,,0.00,WeatherDisplay:10.37,2013-08-10 17:38:00,
2013-08-10 13:40:00,88.2,-10.7,30.10,WNW,294,6.6,9.2,2,0.00,CLR,,0.00,WeatherDisplay:10.37,2013-08-10 17:40:00,
2013-08-10 13:41:00,87.5,-11.2,30.10,West,268,7.5,10.4,2,0.00,CLR,,0.00,WeatherDisplay:10.37,2013-08-10 17:41:00,
2013-08-10 13:42:00,87.4,-11.2,30.10,West,277,7.1,11.5,2,0.00,CLR,,0.00,WeatherDisplay:10.37,2013-08-10 17:42:00,
2013-08-10 13:43:00,87.8,-11.0,30.10,WNW,296,5.2,11.5,2,0.00,CLR,,0.00,WeatherDisplay:10.37,2013-08-10 17:43:00,
2013-08-10 13:46:00,86.1,-12.1,30.10,West,274,8.6,12.7,2,0.00,CLR,,0.00,WeatherDisplay:10.37,2013-08-10 17:46:00,
2013-08-10 13:47:00,84.4,-13.2,30.10,NW,311,8.0,12.7,2,0.00,CLR,,0.00,WeatherDisplay:10.37,2013-08-10 17:47:00,
2013-08-10 13:48:00,84.2,-13.3,30.10,WNW,284,9.0,12.7,2,0.00,CLR,,0.00,WeatherDisplay:10.37,2013-08-10 17:48:00,
2013-08-10 13:51:00,84.9,-12.8,30.10,WNW,298,6.0,10.6,2,0.00,CLR,,0.00,WeatherDisplay:10.37,2013-08-10 17:51:00,
2013-08-10 13:52:00,85.4,-12.5,30.10,WNW,287,7.9,10.4,2,0.00,CLR,,0.00,WeatherDisplay:10.37,2013-08-10 17:52:00,
2013-08-10 13:53:00,84.7,-13.0,30.10,West,272,6.4,10.4,2,0.00,CLR,,0.00,WeatherDisplay:10.37,2013-08-10 17:53:00,
2013-08-10 13:56:00,83.5,-13.7,30.10,West,267,6.0,11.5,2,0.00,CLR,,0.00,WeatherDisplay:10.37,2013-08-10 17:56:00,
2013-08-10 13:57:00,83.5,-13.7,30.10,SSW,208,6.6,11.5,2,0.00,CLR,,0.00,WeatherDisplay:10.37,2013-08-10 17:57:00,
2013-08-10 13:58:00,85.5,-12.5,30.10,West,274,4.3,11.5,2,0.00,CLR,,0.00,WeatherDisplay:10.37,2013-08-10 17:58:00,
2013-08-10 14:02:00,83.8,-13.6,30.10,WNW,287,5.9,11.5,2,0.00,CLR,,0.00,WeatherDisplay:10.37,2013-08-10 18:02:00,
2013-08-10 14:03:00,83.0,-14.1,30.10,North,11,4.7,8.1,2,0.00,CLR,,0.00,WeatherDisplay:10.37,2013-08-10 18:03:00,
2013-08-10 14:07:00,82.8,-14.2,30.10,WSW,247,5.8,9.2,2,0.00,CLR,,0.00,WeatherDisplay:10.37,2013-08-10 18:07:00,
2013-08-10 14:08:00,83.8,-13.6,30.09,West,275,5.6,8.5,2,0.00,CLR,,0.00,WeatherDisplay:10.37,2013-08-10 18:08:00,
2013-08-10 14:09:00,83.8,-13.6,30.09,NW,312,5.7,8.1,2,0.00,CLR,,0.00,WeatherDisplay:10.37,2013-08-10 18:09:00,
2013-08-10 14:12:00,82.1,-14.6,30.09,NW,309,5.1,9.2,2,0.00,CLR,,0.00,WeatherDisplay:10.37,2013-08-10 18:12:00,
2013-08-10 14:13:00,83.6,-13.7,30.09,WNW,287,4.9,9.2,2,0.00,CLR,,0.00,WeatherDisplay:10.37,2013-08-10 18:13:00,
2013-08-10 14:14:00,82.4,-14.4,30.09,WNW,284,8.0,10.4,2,0.00,CLR,,0.00,WeatherDisplay:10.37,2013-08-10 18:14:00,
2013-08-10 14:17:00,84.5,-13.1,30.09,NW,326,0.0,0.0,2,0.00,CLR,,0.00,WeatherDisplay:10.37,2013-08-10 18:17:00,
2013-08-10 14:18:00,83.1,-14.0,30.09,NW,326,0.5,3.3,2,0.00,CLR,,0.00,WeatherDisplay:10.37,2013-08-10 18:18:00,
2013-08-10 14:19:00,85.4,-12.5,30.09,West,274,2.6,3.5,2,0.00,CLR,,0.00,WeatherDisplay:10.37,2013-08-10 18:19:00,
2013-08-10 14:22:00,86.1,-12.1,30.09,NW,308,7.2,13.8,2,0.00,CLR,,0.00,WeatherDisplay:10.37,2013-08-10 18:22:00,
2013-08-10 14:23:00,86.1,-12.1,30.09,NW,318,6.3,13.8,2,0.00,CLR,,0.00,WeatherDisplay:10.37,2013-08-10 18:23:00,
2013-08-10 14:24:00,86.8,-11.6,30.08,NW,305,8.5,10.4,2,0.00,CLR,,0.00,WeatherDisplay:10.37,2013-08-10 18:24:00,
2013-08-10 14:28:00,86.3,-11.9,30.08,WNW,288,7.0,8.3,2,0.00,CLR,,0.00,WeatherDisplay:10.37,2013-08-10 18:28:00,
2013-08-10 14:29:00,86.0,-12.1,30.08,WNW,294,6.1,10.4,2,0.00,CLR,,0.00,WeatherDisplay:10.37,2013-08-10 18:29:00,
2013-08-10 14:33:00,86.2,-12.0,30.08,WSW,248,5.1,10.4,2,0.00,CLR,,0.00,WeatherDisplay:10.37,2013-08-10 18:33:00,
2013-08-10 14:34:00,86.4,-11.9,30.08,NW,306,4.3,10.4,2,0.00,CLR,,0.00,WeatherDisplay:10.37,2013-08-10 18:34:00,
2013-08-10 14:38:00,86.6,-11.8,30.08,WNW,287,5.1,8.1,2,0.00,CLR,,0.00,WeatherDisplay:10.37,2013-08-10 18:38:00,
2013-08-10 14:39:00,87.0,-11.5,30.08,WNW,298,5.3,9.9,2,0.00,CLR,,0.00,WeatherDisplay:10.37,2013-08-10 18:39:00,
2013-08-10 14:40:00,87.1,-11.4,30.08,WNW,295,5.6,10.0,2,0.00,CLR,,0.00,WeatherDisplay:10.37,2013-08-10 18:40:00,
2013-08-10 14:43:00,86.5,-11.8,30.08,NNW,339,3.0,6.9,2,0.00,CLR,,0.00,WeatherDisplay:10.37,2013-08-10 18:43:00,
2013-08-10 14:44:00,87.0,-11.5,30.08,WNW,284,3.7,6.9,2,0.00,CLR,,0.00,WeatherDisplay:10.37,2013-08-10 18:44:00,
2013-08-10 14:45:00,87.0,-11.5,30.08,West,280,5.7,7.5,2,0.00,CLR,,0.00,WeatherDisplay:10.37,2013-08-10 18:45:00,
2013-08-10 14:48:00,88.7,-10.4,30.08,WNW,301,3.0,6.9,2,0.00,CLR,,0.00,WeatherDisplay:10.37,2013-08-10 18:48:00,
2013-08-10 14:49:00,88.9,-10.3,30.08,NNW,346,2.6,8.2,2,0.00,CLR,,0.00,WeatherDisplay:10.37,2013-08-10 18:49:00,
2013-08-10 14:50:00,88.1,-10.8,30.08,WNW,288,6.6,8.1,2,0.00,CLR,,0.00,WeatherDisplay:10.37,2013-08-10 18:50:00,
2013-08-10 14:53:00,89.0,-10.2,30.08,NW,304,0.9,4.2,2,0.00,CLR,,0.00,WeatherDisplay:10.37,2013-08-10 18:53:00,
2013-08-10 14:54:00,89.2,-10.1,30.08,WSW,258,2.9,5.8,2,0.00,CLR,,0.00,WeatherDisplay:10.37,2013-08-10 18:54:00,
2013-08-10 14:55:00,89.5,-9.9,30.08,NNW,330,0.4,9.2,2,0.00,CLR,,0.00,WeatherDisplay:10.37,2013-08-10 18:55:00,
2013-08-10 14:56:00,88.9,-10.3,30.08,West,271,5.4,5.4,2,0.00,CLR,,0.00,WeatherDisplay:10.37,2013-08-10 18:56:00,
2013-08-10 14:59:00,87.3,-11.3,30.08,NW,308,7.4,8.1,2,0.00,CLR,,0.00,WeatherDisplay:10.37,2013-08-10 18:59:00,
2013-08-10 15:00:00,88.3,-10.7,30.08,NW,311,6.0,8.1,2,0.00,CLR,,0.00,WeatherDisplay:10.37,2013-08-10 19:00:00,
2013-08-10 15:01:00,88.5,-10.5,30.08,NW,326,5.3,8.1,2,0.00,CLR,,0.00,WeatherDisplay:10.37,2013-08-10 19:01:00,
2013-08-10 15:04:00,87.9,-10.9,30.08,North,360,4.7,8.1,2,0.00,CLR,,0.00,WeatherDisplay:10.37,2013-08-10 19:04:00,
2013-08-10 15:05:00,88.5,-10.5,30.08,North,360,3.3,8.1,2,0.00,CLR,,0.00,WeatherDisplay:10.37,2013-08-10 19:05:00,
2013-08-10 15:06:00,87.6,-11.1,30.08,WNW,298,2.8,5.8,2,0.00,CLR,,0.00,WeatherDisplay:10.37,2013-08-10 19:06:00,
2013-08-10 15:09:00,87.1,-11.4,30.08,WSW,257,5.7,8.1,2,0.00,CLR,,0.00,WeatherDisplay:10.37,2013-08-10 19:09:00,
2013-08-10 15:10:00,87.1,-11.4,30.08,West,280,5.7,11.1,2,0.00,CLR,,0.00,WeatherDisplay:10.37,2013-08-10 19:10:00,
2013-08-10 15:12:00,86.8,-11.6,30.08,WNW,294,2.2,5.8,2,0.00,CLR,,0.00,WeatherDisplay:10.37,2013-08-10 19:12:00,
2013-08-10 15:14:00,88.8,-10.3,30.08,SSW,209,0.0,3.5,2,0.00,CLR,,0.00,WeatherDisplay:10.37,2013-08-10 19:14:00,
2013-08-10 15:15:00,89.0,-10.2,30.08,NNE,13,0.1,5.1,2,0.00,CLR,,0.00,WeatherDisplay:10.37,2013-08-10 19:15:00,
2013-08-10 15:17:00,88.4,-10.6,30.08,North,1,0.5,4.6,2,0.00,CLR,,0.00,WeatherDisplay:10.37,2013-08-10 19:17:00,
2013-08-10 15:19:00,88.8,-10.3,30.08,WNW,302,1.9,5.0,2,0.00,CLR,,0.00,WeatherDisplay:10.37,2013-08-10 19:19:00,
2013-08-10 15:20:00,88.8,-10.3,30.08,WNW,294,2.3,6.0,2,0.00,CLR,,0.00,WeatherDisplay:10.37,2013-08-10 19:20:00,
2013-08-10 15:21:00,88.5,-10.5,30.08,WNW,288,5.1,6.9,2,0.00,CLR,,0.00,WeatherDisplay:10.37,2013-08-10 19:21:00,
2013-08-10 15:22:00,88.4,-10.6,30.08,WSW,243,2.3,8.1,2,0.00,CLR,,0.00,WeatherDisplay:10.37,2013-08-10 19:22:00,
2013-08-10 15:25:00,89.4,-10.0,30.08,SSW,210,3.8,3.8,2,0.00,CLR,,0.00,WeatherDisplay:10.37,2013-08-10 19:25:00,
2013-08-10 15:26:00,89.9,-9.6,30.08,West,267,3.9,7.2,2,0.00,CLR,,0.00,WeatherDisplay:10.37,2013-08-10 19:26:00,
2013-08-10 15:27:00,90.3,-9.4,30.08,WSW,244,1.6,10.4,2,0.00,CLR,,0.00,WeatherDisplay:10.37,2013-08-10 19:27:00,
2013-08-10 15:30:00,90.6,-9.2,30.08,WNW,298,0.5,3.5,2,0.00,CLR,,0.00,WeatherDisplay:10.37,2013-08-10 19:30:00,
2013-08-10 15:31:00,90.5,-9.3,30.07,WNW,299,5.1,7.8,2,0.00,CLR,,0.00,WeatherDisplay:10.37,2013-08-10 19:31:00,
2013-08-10 15:32:00,91.3,-8.8,30.08,West,278,2.9,8.1,2,0.00,CLR,,0.00,WeatherDisplay:10.37,2013-08-10 19:32:00,
2013-08-10 15:35:00,91.4,-8.7,30.07,North,349,2.3,8.1,2,0.00,CLR,,0.00,WeatherDisplay:10.37,2013-08-10 19:35:00,
2013-08-10 15:36:00,90.7,-9.1,30.07,NW,325,1.0,5.8,2,0.00,CLR,,0.00,WeatherDisplay:10.37,2013-08-10 19:36:00,
2013-08-10 15:37:00,91.0,-8.9,30.07,SSW,192,5.9,9.2,2,0.00,CLR,,0.00,WeatherDisplay:10.37,2013-08-10 19:37:00,
2013-08-10 15:40:00,90.3,-9.4,30.07,NW,304,4.4,8.1,2,0.00,CLR,,0.00,WeatherDisplay:10.37,2013-08-10 19:40:00,
2013-08-10 15:41:00,90.7,-9.1,30.07,West,281,1.7,8.1,2,0.00,CLR,,0.00,WeatherDisplay:10.37,2013-08-10 19:41:00,
2013-08-10 15:42:00,90.7,-9.1,30.07,NW,319,2.8,4.6,2,0.00,CLR,,0.00,WeatherDisplay:10.37,2013-08-10 19:42:00,
2013-08-10 15:45:00,90.9,-9.0,30.07,SW,233,3.2,4.6,2,0.00,CLR,,0.00,WeatherDisplay:10.37,2013-08-10 19:45:00,
2013-08-10 15:46:00,91.1,-8.9,30.07,South,191,3.3,6.9,2,0.00,CLR,,0.00,WeatherDisplay:10.37,2013-08-10 19:46:00,
2013-08-10 15:47:00,91.2,-8.8,30.07,NW,311,1.7,5.8,2,0.00,CLR,,0.00,WeatherDisplay:10.37,2013-08-10 19:47:00,
2013-08-10 15:48:00,91.2,-8.8,30.07,SW,223,2.9,8.7,2,0.00,CLR,,0.00,WeatherDisplay:10.37,2013-08-10 19:48:00,
2013-08-10 15:50:00,91.3,-8.8,30.07,West,270,6.0,9.2,2,0.00,CLR,,0.00,WeatherDisplay:10.37,2013-08-10 19:50:00,
2013-08-10 15:52:00,90.4,-9.3,30.07,WSW,253,8.1,11.5,2,0.00,CLR,,0.00,WeatherDisplay:10.37,2013-08-10 19:52:00,
2013-08-10 15:54:00,90.0,-9.6,30.07,South,188,4.6,7.8,2,0.00,CLR,,0.00,WeatherDisplay:10.37,2013-08-10 19:54:00,
2013-08-10 15:55:00,90.4,-9.3,30.07,SW,233,4.8,8.1,2,0.00,CLR,,0.00,WeatherDisplay:10.37,2013-08-10 19:55:00,
2013-08-10 15:56:00,90.9,-9.0,30.07,SW,233,3.0,8.1,2,0.00,CLR,,0.00,WeatherDisplay:10.37,2013-08-10 19:56:00,
2013-08-10 15:57:00,89.7,-9.8,30.07,West,272,4.0,8.1,2,0.00,CLR,,0.00,WeatherDisplay:10.37,2013-08-10 19:57:00,
2013-08-10 15:58:00,90.8,-9.1,30.07,West,278,2.4,8.1,2,0.00,CLR,,0.00,WeatherDisplay:10.37,2013-08-10 19:58:00,
2013-08-10 15:59:00,91.7,-8.5,30.07,West,272,2.1,6.9,2,0.00,CLR,,0.00,WeatherDisplay:10.37,2013-08-10 19:59:00,
2013-08-10 16:00:00,90.8,-9.1,30.07,NW,316,5.8,9.2,2,0.00,CLR,,0.00,WeatherDisplay:10.37,2013-08-10 20:00:00,
2013-08-10 16:01:00,90.1,-9.5,30.07,WNW,291,5.2,9.2,2,0.00,CLR,,0.00,WeatherDisplay:10.37,2013-08-10 20:01:00,
2013-08-10 16:02:00,90.0,-9.6,30.07,NNW,328,2.9,8.1,2,0.00,CLR,,0.00,WeatherDisplay:10.37,2013-08-10 20:02:00,
2013-08-10 16:03:00,90.1,-9.5,30.07,WNW,302,3.6,6.9,2,0.00,CLR,,0.00,WeatherDisplay:10.37,2013-08-10 20:03:00,
2013-08-10 16:04:00,89.6,-9.8,30.07,NW,312,2.0,4.6,2,0.00,CLR,,0.00,WeatherDisplay:10.37,2013-08-10 20:04:00,
2013-08-10 16:05:00,90.0,-9.6,30.07,SW,219,3.5,10.3,2,0.00,CLR,,0.00,WeatherDisplay:10.37,2013-08-10 20:05:00,
2013-08-10 16:06:00,89.9,-9.6,30.07,West,280,5.5,8.7,2,0.00,CLR,,0.00,WeatherDisplay:10.37,2013-08-10 20:06:00,
2013-08-10 16:07:00,89.3,-10.0,30.07,WNW,298,3.2,9.2,2,0.00,CLR,,0.00,WeatherDisplay:10.37,2013-08-10 20:07:00,
2013-08-10 16:08:00,89.6,-9.8,30.07,SW,232,3.0,8.1,2,0.00,CLR,,0.00,WeatherDisplay:10.37,2013-08-10 20:08:00,
2013-08-10 16:09:00,89.8,-9.7,30.07,West,260,3.2,5.8,2,0.00,CLR,,0.00,WeatherDisplay:10.37,2013-08-10 20:09:00,
2013-08-10 16:10:00,89.2,-10.1,30.07,WSW,256,4.1,7.8,2,0.00,CLR,,0.00,WeatherDisplay:10.37,2013-08-10 20:10:00,
2013-08-10 16:11:00,89.3,-10.0,30.07,NW,326,5.6,9.8,2,0.00,CLR,,0.00,WeatherDisplay:10.37,2013-08-10 20:11:00,
2013-08-10 16:12:00,89.0,-10.2,30.07,NW,304,1.3,10.4,2,0.00,CLR,,0.00,WeatherDisplay:10.37,2013-08-10 20:12:00,
2013-08-10 16:13:00,88.7,-10.4,30.07,NW,304,0.7,3.5,2,0.00,CLR,,0.00,WeatherDisplay:10.37,2013-08-10 20:13:00,
2013-08-10 16:14:00,89.6,-9.8,30.07,WSW,250,2.2,5.9,2,0.00,CLR,,0.00,WeatherDisplay:10.37,2013-08-10 20:14:00,
2013-08-10 16:16:00,89.6,-9.8,30.07,NW,325,2.5,5.8,2,0.00,CLR,,0.00,WeatherDisplay:10.37,2013-08-10 20:16:00,
2013-08-10 16:17:00,89.9,-9.6,30.07,WNW,301,5.3,6.9,2,0.00,CLR,,0.00,WeatherDisplay:10.37,2013-08-10 20:17:00,
2013-08-10 16:18:00,90.0,-9.6,30.07,West,271,4.4,6.9,2,0.00,CLR,,0.00,WeatherDisplay:10.37,2013-08-10 20:18:00,
2013-08-10 16:19:00,89.8,-9.7,30.07,West,263,3.8,6.9,2,0.00,CLR,,0.00,WeatherDisplay:10.37,2013-08-10 20:19:00,
2013-08-10 16:21:00,89.8,-9.7,30.07,WNW,295,0.0,0.0,2,0.00,CLR,,0.00,WeatherDisplay:10.37,2013-08-10 20:21:00,
2013-08-10 16:22:00,89.7,-9.8,30.07,SSW,206,2.6,5.8,2,0.00,CLR,,0.00,WeatherDisplay:10.37,2013-08-10 20:22:00,
2013-08-10 16:24:00,89.7,-9.8,30.07,SSW,192,3.3,5.8,2,0.00,CLR,,0.00,WeatherDisplay:10.37,2013-08-10 20:24:00,
2013-08-10 16:26:00,89.4,-10.0,30.07,WNW,285,3.7,9.2,2,0.00,CLR,,0.00,WeatherDisplay:10.37,2013-08-10 20:26:00,
2013-08-10 16:27:00,89.0,-10.2,30.07,West,280,3.4,6.4,2,0.00,CLR,,0.00,WeatherDisplay:10.37,2013-08-10 20:27:00,
2013-08-10 16:29:00,88.9,-10.3,30.07,NNW,328,2.6,5.8,2,0.00,CLR,,0.00,WeatherDisplay:10.37,2013-08-10 20:29:00,
2013-08-10 16:31:00,88.9,-10.3,30.07,WNW,288,4.9,5.8,2,0.00,CLR,,0.00,WeatherDisplay:10.37,2013-08-10 20:31:00,
2013-08-10 16:32:00,88.7,-10.4,30.07,West,263,6.0,6.0,2,0.00,CLR,,0.00,WeatherDisplay:10.37,2013-08-10 20:32:00,
2013-08-10 16:34:00,88.6,-10.5,30.07,NW,305,1.5,6.9,2,0.00,CLR,,0.00,WeatherDisplay:10.37,2013-08-10 20:34:00,
2013-08-10 16:36:00,88.2,-10.7,30.07,SW,233,0.6,5.7,2,0.00,CLR,,0.00,WeatherDisplay:10.37,2013-08-10 20:36:00,
2013-08-10 16:37:00,88.2,-10.7,30.07,WSW,241,1.5,5.8,2,0.00,CLR,,0.00,WeatherDisplay:10.37,2013-08-10 20:37:00,
2013-08-10 16:39:00,88.3,-10.7,30.07,WSW,241,0.0,0.0,2,0.00,CLR,,0.00,WeatherDisplay:10.37,2013-08-10 20:39:00,
2013-08-10 16:40:00,87.9,-10.9,30.07,WSW,241,0.0,0.0,2,0.00,CLR,,0.00,WeatherDisplay:10.37,2013-08-10 20:40:00,
2013-08-10 16:42:00,88.4,-10.6,30.07,WSW,241,0.0,0.0,2,0.00,CLR,,0.00,WeatherDisplay:10.37,2013-08-10 20:42:00,
2013-08-10 16:43:00,88.8,-10.3,30.07,WSW,241,0.0,0.0,2,0.00,CLR,,0.00,WeatherDisplay:10.37,2013-08-10 20:43:00,
2013-08-10 16:44:00,88.3,-10.7,30.07,WSW,241,0.0,0.0,2,0.00,CLR,,0.00,WeatherDisplay:10.37,2013-08-10 20:44:00,
2013-08-10 16:45:00,88.8,-10.3,30.07,WSW,241,0.0,0.0,2,0.00,CLR,,0.00,WeatherDisplay:10.37,2013-08-10 20:45:00,
2013-08-10 16:47:00,88.8,-10.3,30.07,WSW,241,0.0,0.0,2,0.00,CLR,,0.00,WeatherDisplay:10.37,2013-08-10 20:47:00,
2013-08-10 16:48:00,89.1,-10.2,30.07,WSW,241,0.0,0.0,2,0.00,CLR,,0.00,WeatherDisplay:10.37,2013-08-10 20:48:00,
2013-08-10 16:49:00,88.4,-10.6,30.07,South,189,0.5,3.0,2,0.00,CLR,,0.00,WeatherDisplay:10.37,2013-08-10 20:49:00,
2013-08-10 16:51:00,88.8,-10.3,30.07,South,189,0.0,3.5,2,0.00,CLR,,0.00,WeatherDisplay:10.37,2013-08-10 20:51:00,
2013-08-10 16:52:00,88.6,-10.5,30.07,South,189,0.0,0.0,2,0.00,CLR,,0.00,WeatherDisplay:10.37,2013-08-10 20:52:00,
2013-08-10 16:53:00,88.5,-10.5,30.07,South,189,0.0,0.0,2,0.00,CLR,,0.00,WeatherDisplay:10.37,2013-08-10 20:53:00,
2013-08-10 16:54:00,88.2,-10.7,30.07,South,189,0.0,0.0,2,0.00,CLR,,0.00,WeatherDisplay:10.37,2013-08-10 20:54:00,
2013-08-10 16:56:00,88.6,-10.5,30.07,South,189,0.0,0.0,2,0.00,CLR,,0.00,WeatherDisplay:10.37,2013-08-10 20:56:00,
2013-08-10 16:57:00,88.2,-10.7,30.07,South,189,0.0,0.0,2,0.00,CLR,,0.00,WeatherDisplay:10.37,2013-08-10 20:57:00,
2013-08-10 16:58:00,88.8,-10.3,30.07,West,275,1.4,4.8,2,0.00,CLR,,0.00,WeatherDisplay:10.37,2013-08-10 20:58:00,
2013-08-10 16:59:00,89.2,-10.1,30.07,NW,308,1.4,5.8,2,0.00,CLR,,0.00,WeatherDisplay:10.37,2013-08-10 20:59:00,
2013-08-10 17:01:00,89.7,-9.8,30.07,WNW,296,0.9,4.9,2,0.00,CLR,,0.00,WeatherDisplay:10.37,2013-08-10 21:01:00,
2013-08-10 17:02:00,89.9,-9.6,30.07,WNW,296,4.5,5.8,2,0.00,CLR,,0.00,WeatherDisplay:10.37,2013-08-10 21:02:00,
2013-08-10 17:03:00,90.2,-9.5,30.07,WNW,292,2.7,8.1,2,0.00,CLR,,0.00,WeatherDisplay:10.37,2013-08-10 21:03:00,
2013-08-10 17:04:00,90.9,-9.0,30.07,WNW,287,3.1,4.6,2,0.00,CLR,,0.00,WeatherDisplay:10.37,2013-08-10 21:04:00,
2013-08-10 17:06:00,91.1,-8.9,30.06,NW,306,4.1,5.3,2,0.00,CLR,,0.00,WeatherDisplay:10.37,2013-08-10 21:06:00,
2013-08-10 17:07:00,91.2,-8.8,30.06,SW,216,4.8,8.1,2,0.00,CLR,,0.00,WeatherDisplay:10.37,2013-08-10 21:07:00,
2013-08-10 17:08:00,91.6,-8.6,30.06,WSW,243,4.5,8.1,2,0.00,CLR,,0.00,WeatherDisplay:10.37,2013-08-10 21:08:00,
2013-08-10 17:09:00,91.3,-8.8,30.06,SW,226,4.0,8.1,2,0.00,CLR,,0.00,WeatherDisplay:10.37,2013-08-10 21:09:00,
2013-08-10 17:12:00,91.2,-8.8,30.06,NW,319,4.3,5.8,2,0.00,CLR,,0.00,WeatherDisplay:10.37,2013-08-10 21:12:00,
2013-08-10 17:13:00,90.9,-9.0,30.06,NW,304,1.8,5.8,2,0.00,CLR,,0.00,WeatherDisplay:10.37,2013-08-10 21:13:00,
2013-08-10 17:15:00,91.5,-8.6,30.06,NW,304,0.0,0.0,2,0.00,CLR,,0.00,WeatherDisplay:10.37,2013-08-10 21:15:00,
2013-08-10 17:17:00,92.0,-8.3,30.06,South,182,2.2,5.8,2,0.00,CLR,,0.00,WeatherDisplay:10.37,2013-08-10 21:17:00,
2013-08-10 17:18:00,92.5,-8.0,30.06,South,182,1.8,5.8,2,0.00,CLR,,0.00,WeatherDisplay:10.37,2013-08-10 21:18:00,
2013-08-10 17:19:00,93.0,-7.7,30.06,South,182,0.4,3.5,2,0.00,CLR,,0.00,WeatherDisplay:10.37,2013-08-10 21:19:00,
2013-08-10 17:20:00,92.1,-8.2,30.06,West,281,5.5,8.1,2,0.00,CLR,,0.00,WeatherDisplay:10.37,2013-08-10 21:20:00,
2013-08-10 17:22:00,91.5,-8.6,30.06,West,277,4.8,9.2,2,0.00,CLR,,0.00,WeatherDisplay:10.37,2013-08-10 21:22:00,
2013-08-10 17:23:00,91.4,-8.7,30.06,West,277,0.5,9.2,2,0.00,CLR,,0.00,WeatherDisplay:10.37,2013-08-10 21:23:00,
2013-08-10 17:24:00,91.7,-8.5,30.06,West,277,0.0,0.0,2,0.00,CLR,,0.00,WeatherDisplay:10.37,2013-08-10 21:24:00,
2013-08-10 17:26:00,91.0,-8.9,30.06,West,277,0.0,0.0,2,0.00,CLR,,0.00,WeatherDisplay:10.37,2013-08-10 21:26:00,
2013-08-10 17:27:00,91.9,-8.4,30.06,West,277,0.0,0.0,2,0.00,CLR,,0.00,WeatherDisplay:10.37,2013-08-10 21:27:00,
2013-08-10 17:28:00,91.0,-8.9,30.06,WNW,291,1.7,6.9,2,0.00,CLR,,0.00,WeatherDisplay:10.37,2013-08-10 21:28:00,
2013-08-10 17:29:00,90.9,-9.0,30.06,WSW,246,2.4,5.8,2,0.00,CLR,,0.00,WeatherDisplay:10.37,2013-08-10 21:29:00,
2013-08-10 17:31:00,90.4,-9.3,30.07,NW,322,4.2,8.1,2,0.00,CLR,,0.00,WeatherDisplay:10.37,2013-08-10 21:31:00,
2013-08-10 17:32:00,89.5,-9.9,30.06,NNW,328,5.3,5.8,2,0.00,CLR,,0.00,WeatherDisplay:10.37,2013-08-10 21:32:00,
2013-08-10 17:33:00,89.3,-10.0,30.07,WSW,254,3.2,9.2,2,0.00,CLR,,0.00,WeatherDisplay:10.37,2013-08-10 21:33:00,
2013-08-10 17:34:00,89.0,-10.2,30.07,WNW,296,3.3,7.0,2,0.00,CLR,,0.00,WeatherDisplay:10.37,2013-08-10 21:34:00,
2013-08-10 17:36:00,88.7,-10.4,30.06,WNW,282,0.0,0.0,2,0.00,CLR,,0.00,WeatherDisplay:10.37,2013-08-10 21:36:00,
2013-08-10 17:37:00,88.5,-10.5,30.06,WNW,282,0.0,0.0,2,0.00,CLR,,0.00,WeatherDisplay:10.37,2013-08-10 21:37:00,
2013-08-10 17:39:00,88.2,-10.7,30.06,WNW,282,0.0,0.0,2,0.00,CLR,,0.00,WeatherDisplay:10.37,2013-08-10 21:39:00,
2013-08-10 17:42:00,87.6,-11.1,30.06,WNW,282,0.0,0.0,2,0.00,CLR,,0.00,WeatherDisplay:10.37,2013-08-10 21:42:00,
2013-08-10 17:44:00,88.2,-10.7,30.06,WNW,282,0.0,0.0,2,0.00,CLR,,0.00,WeatherDisplay:10.37,2013-08-10 21:44:00,
2013-08-10 17:47:00,88.3,-10.7,30.06,WNW,282,0.0,0.0,2,0.00,CLR,,0.00,WeatherDisplay:10.37,2013-08-10 21:47:00,
2013-08-10 17:49:00,88.4,-10.6,30.07,WNW,282,0.0,0.0,2,0.00,CLR,,0.00,WeatherDisplay:10.37,2013-08-10 21:49:00,
2013-08-10 17:50:00,88.3,-10.7,30.07,WNW,282,0.0,0.0,2,0.00,CLR,,0.00,WeatherDisplay:10.37,2013-08-10 21:50:00,
2013-08-10 17:52:00,87.8,-11.0,30.07,West,277,0.0,2.3,2,0.00,CLR,,0.00,WeatherDisplay:10.37,2013-08-10 21:52:00,
2013-08-10 17:54:00,87.7,-11.1,30.07,West,277,0.0,0.0,2,0.00,CLR,,0.00,WeatherDisplay:10.37,2013-08-10 21:54:00,
2013-08-10 17:55:00,87.5,-11.2,30.07,West,277,0.0,0.0,2,0.00,CLR,,0.00,WeatherDisplay:10.37,2013-08-10 21:55:00,
2013-08-10 17:57:00,87.4,-11.2,30.07,West,277,0.0,0.0,2,0.00,CLR,,0.00,WeatherDisplay:10.37,2013-08-10 21:57:00,
2013-08-10 17:59:00,87.1,-11.4,30.07,West,277,0.0,0.0,2,0.00,CLR,,0.00,WeatherDisplay:10.37,2013-08-10 21:59:00,
2013-08-10 18:00:00,88.1,-10.8,30.07,West,277,0.0,0.0,2,0.00,CLR,,0.00,WeatherDisplay:10.37,2013-08-10 22:00:00,
2013-08-10 18:03:00,87.6,-11.1,30.07,West,277,0.0,0.0,2,0.00,CLR,,0.00,WeatherDisplay:10.37,2013-08-10 22:03:00,
2013-08-10 18:04:00,86.9,-11.6,30.07,West,277,0.0,0.0,2,0.00,CLR,,0.00,WeatherDisplay:10.37,2013-08-10 22:04:00,
2013-08-10 18:06:00,87.9,-10.9,30.07,West,277,0.0,0.0,2,0.00,CLR,,0.00,WeatherDisplay:10.37,2013-08-10 22:06:00,
2013-08-10 18:08:00,87.2,-11.4,30.07,West,277,0.0,0.0,2,0.00,CLR,,0.00,WeatherDisplay:10.37,2013-08-10 22:08:00,
2013-08-10 18:09:00,87.5,-11.2,30.07,West,277,0.0,0.0,2,0.00,CLR,,0.00,WeatherDisplay:10.37,2013-08-10 22:09:00,
2013-08-10 18:10:00,88.4,-10.6,30.07,West,277,0.0,0.0,2,0.00,CLR,,0.00,WeatherDisplay:10.37,2013-08-10 22:10:00,
2013-08-10 18:11:00,88.1,-10.8,30.07,West,277,0.0,0.0,2,0.00,CLR,,0.00,WeatherDisplay:10.37,2013-08-10 22:11:00,
2013-08-10 18:13:00,88.8,-10.3,30.07,West,277,0.0,0.0,2,0.00,CLR,,0.00,WeatherDisplay:10.37,2013-08-10 22:13:00,
2013-08-10 18:14:00,88.0,-10.9,30.07,West,277,0.0,0.0,2,0.00,CLR,,0.00,WeatherDisplay:10.37,2013-08-10 22:14:00,
2013-08-10 18:15:00,88.0,-10.9,30.07,West,277,0.0,0.0,2,0.00,CLR,,0.00,WeatherDisplay:10.37,2013-08-10 22:15:00,
2013-08-10 18:16:00,88.6,-10.5,30.07,West,277,0.0,0.0,2,0.00,CLR,,0.00,WeatherDisplay:10.37,2013-08-10 22:16:00,
2013-08-10 18:18:00,88.6,-10.5,30.07,West,277,0.0,0.0,2,0.00,CLR,,0.00,WeatherDisplay:10.37,2013-08-10 22:18:00,
2013-08-10 18:19:00,87.9,-10.9,30.07,West,277,0.0,0.0,2,0.00,CLR,,0.00,WeatherDisplay:10.37,2013-08-10 22:19:00,
2013-08-10 18:20:00,88.5,-10.5,30.07,West,277,0.0,0.0,2,0.00,CLR,,0.00,WeatherDisplay:10.37,2013-08-10 22:20:00,
2013-08-10 18:22:00,88.4,-10.6,30.07,West,277,0.0,0.0,2,0.00,CLR,,0.00,WeatherDisplay:10.37,2013-08-10 22:22:00,
2013-08-10 18:23:00,88.1,-10.8,30.07,West,277,0.0,0.0,2,0.00,CLR,,0.00,WeatherDisplay:10.37,2013-08-10 22:23:00,
2013-08-10 18:24:00,87.7,-11.1,30.07,West,277,0.0,0.0,2,0.00,CLR,,0.00,WeatherDisplay:10.37,2013-08-10 22:24:00,
2013-08-10 18:25:00,88.0,-10.9,30.07,West,277,0.0,0.0,2,0.00,CLR,,0.00,WeatherDisplay:10.37,2013-08-10 22:25:00,
2013-08-10 18:28:00,87.5,-11.2,30.07,West,277,0.0,0.0,2,0.00,CLR,,0.00,WeatherDisplay:10.37,2013-08-10 22:28:00,
2013-08-10 18:29:00,88.6,-10.5,30.07,West,277,0.0,0.0,2,0.00,CLR,,0.00,WeatherDisplay:10.37,2013-08-10 22:29:00,
2013-08-10 18:30:00,87.8,-11.0,30.07,West,277,0.0,0.0,2,0.00,CLR,,0.00,WeatherDisplay:10.37,2013-08-10 22:30:00,
2013-08-10 18:33:00,88.0,-10.9,30.07,West,277,0.0,0.0,2,0.00,CLR,,0.00,WeatherDisplay:10.37,2013-08-10 22:33:00,
2013-08-10 18:35:00,88.3,-10.7,30.07,West,277,0.0,0.0,2,0.00,CLR,,0.00,WeatherDisplay:10.37,2013-08-10 22:35:00,
2013-08-10 18:36:00,88.5,-10.5,30.07,West,277,0.0,0.0,2,0.00,CLR,,0.00,WeatherDisplay:10.37,2013-08-10 22:36:00,
2013-08-10 18:38:00,87.8,-11.0,30.07,West,277,0.0,0.0,2,0.00,CLR,,0.00,WeatherDisplay:10.37,2013-08-10 22:38:00,
2013-08-10 18:40:00,88.3,-10.7,30.07,West,277,0.0,0.0,2,0.00,CLR,,0.00,WeatherDisplay:10.37,2013-08-10 22:40:00,
2013-08-10 18:41:00,88.2,-10.7,30.07,West,277,0.0,0.0,2,0.00,CLR,,0.00,WeatherDisplay:10.37,2013-08-10 22:41:00,
2013-08-10 18:43:00,87.5,-11.2,30.07,West,277,0.0,0.0,2,0.00,CLR,,0.00,WeatherDisplay:10.37,2013-08-10 22:43:00,
2013-08-10 18:45:00,87.1,-11.4,30.07,West,277,0.0,0.0,2,0.00,CLR,,0.00,WeatherDisplay:10.37,2013-08-10 22:45:00,
2013-08-10 18:46:00,87.3,-11.3,30.07,West,277,0.0,0.0,2,0.00,CLR,,0.00,WeatherDisplay:10.37,2013-08-10 22:46:00,
2013-08-10 18:49:00,87.5,-11.2,30.07,West,277,0.0,0.0,2,0.00,CLR,,0.00,WeatherDisplay:10.37,2013-08-10 22:49:00,
2013-08-10 18:51:00,88.4,-10.6,30.07,West,277,0.0,0.0,2,0.00,CLR,,0.00,WeatherDisplay:10.37,2013-08-10 22:51:00,
2013-08-10 18:54:00,87.1,-11.4,30.07,West,277,0.0,0.0,2,0.00,CLR,,0.00,WeatherDisplay:10.37,2013-08-10 22:54:00,
2013-08-10 18:56:00,84.0,-13.4,30.08,West,277,0.0,0.0,2,0.00,CLR,,0.00,WeatherDisplay:10.37,2013-08-10 22:56:00,
2013-08-10 18:59:00,85.3,-12.6,30.08,West,277,0.0,0.0,2,0.00,CLR,,0.00,WeatherDisplay:10.37,2013-08-10 22:59:00,
2013-08-10 19:01:00,83.9,-13.5,30.08,West,277,0.0,0.0,2,0.00,CLR,,0.00,WeatherDisplay:10.37,2013-08-10 23:01:00,
2013-08-10 19:04:00,83.3,-13.9,30.08,West,277,0.0,0.0,2,0.00,CLR,,0.00,WeatherDisplay:10.37,2013-08-10 23:04:00,
2013-08-10 19:06:00,82.2,-14.6,30.08,West,277,0.0,0.0,2,0.00,CLR,,0.00,WeatherDisplay:10.37,2013-08-10 23:06:00,
2013-08-10 19:09:00,81.2,-15.2,30.08,West,277,0.0,0.0,2,0.00,CLR,,0.00,WeatherDisplay:10.37,2013-08-10 23:09:00,
2013-08-10 19:10:00,81.4,-6.9,30.08,West,277,0.0,0.0,3,0.00,CLR,,0.00,WeatherDisplay:10.37,2013-08-10 23:10:00,
2013-08-10 19:11:00,82.1,-6.4,30.08,West,277,0.0,0.0,3,0.00,CLR,,0.00,WeatherDisplay:10.37,2013-08-10 23:11:00,
2013-08-10 19:14:00,80.4,-7.6,30.08,West,277,0.0,0.0,3,0.00,CLR,,0.00,WeatherDisplay:10.37,2013-08-10 23:14:00,
2013-08-10 19:15:00,80.4,-7.6,30.08,West,277,0.0,0.0,3,0.00,CLR,,0.00,WeatherDisplay:10.37,2013-08-10 23:15:00,
2013-08-10 19:16:00,80.4,-1.6,30.08,West,277,0.0,0.0,4,0.00,CLR,,0.00,WeatherDisplay:10.37,2013-08-10 23:16:00,
2013-08-10 19:17:00,81.1,-1.1,30.08,West,277,0.0,0.0,4,0.00,CLR,,0.00,WeatherDisplay:10.37,2013-08-10 23:17:00,
2013-08-10 19:19:00,80.3,-7.6,30.08,NW,320,5.6,11.5,3,0.00,CLR,,0.00,WeatherDisplay:10.37,2013-08-10 23:19:00,
2013-08-10 19:20:00,79.8,-8.0,30.08,NNW,328,4.5,8.1,3,0.00,CLR,,0.00,WeatherDisplay:10.37,2013-08-10 23:20:00,
2013-08-10 19:21:00,79.7,-2.1,30.08,WNW,298,3.3,5.8,4,0.00,CLR,,0.00,WeatherDisplay:10.37,2013-08-10 23:21:00,
2013-08-10 19:22:00,80.1,-1.8,30.08,WNW,298,1.0,4.6,4,0.00,CLR,,0.00,WeatherDisplay:10.37,2013-08-10 23:22:00,
2013-08-10 19:24:00,78.4,-3.0,30.08,WNW,298,0.0,0.0,4,0.00,CLR,,0.00,WeatherDisplay:10.37,2013-08-10 23:24:00,
2013-08-10 19:26:00,79.0,-8.5,30.08,WNW,298,0.0,0.0,3,0.00,CLR,,0.00,WeatherDisplay:10.37,2013-08-10 23:26:00,
2013-08-10 19:27:00,79.0,-8.5,30.08,WNW,298,0.0,0.0,3,0.00,CLR,,0.00,WeatherDisplay:10.37,2013-08-10 23:27:00,
2013-08-10 19:30:00,79.1,-8.4,30.08,NNW,340,0.0,0.0,3,0.00,CLR,,0.00,WeatherDisplay:10.37,2013-08-10 23:30:00,
2013-08-10 19:32:00,78.7,-8.7,30.08,NW,325,4.7,6.9,3,0.00,CLR,,0.00,WeatherDisplay:10.37,2013-08-10 23:32:00,
2013-08-10 19:33:00,78.5,-8.9,30.08,NW,318,1.7,6.9,3,0.00,CLR,,0.00,WeatherDisplay:10.37,2013-08-10 23:33:00,
2013-08-10 19:35:00,78.1,-9.1,30.09,NW,318,0.0,0.0,3,0.00,CLR,,0.00,WeatherDisplay:10.37,2013-08-10 23:35:00,
2013-08-10 19:37:00,78.7,-8.7,30.08,North,349,0.0,1.5,3,0.00,CLR,,0.00,WeatherDisplay:10.37,2013-08-10 23:37:00,
2013-08-10 19:38:00,78.8,-8.6,30.08,NW,326,0.0,4.6,3,0.00,CLR,,0.00,WeatherDisplay:10.37,2013-08-10 23:38:00,
2013-08-10 19:40:00,79.4,-8.2,30.09,NW,316,1.0,4.6,3,0.00,CLR,,0.00,WeatherDisplay:10.37,2013-08-10 23:40:00,
2013-08-10 19:42:00,78.3,-9.0,30.09,NW,316,0.0,0.0,3,0.00,CLR,,0.00,WeatherDisplay:10.37,2013-08-10 23:42:00,
2013-08-10 19:43:00,78.7,-8.7,30.08,NW,316,0.0,0.0,3,0.00,CLR,,0.00,WeatherDisplay:10.37,2013-08-10 23:43:00,
2013-08-10 19:45:00,78.4,-17.0,30.09,NW,316,0.0,0.0,2,0.00,CLR,,0.00,WeatherDisplay:10.37,2013-08-10 23:45:00,
2013-08-10 19:47:00,78.4,-17.0,30.08,NW,316,0.0,0.0,2,0.00,CLR,,0.00,WeatherDisplay:10.37,2013-08-10 23:47:00,
2013-08-10 19:48:00,78.2,-17.2,30.08,NW,316,0.0,0.0,2,0.00,CLR,,0.00,WeatherDisplay:10.37,2013-08-10 23:48:00,
2013-08-10 19:50:00,79.7,-16.2,30.08,NNW,328,0.2,3.5,2,0.00,CLR,,0.00,WeatherDisplay:10.37,2013-08-10 23:50:00,
2013-08-10 19:52:00,80.0,-16.0,30.08,NW,305,0.0,4.6,2,0.00,CLR,,0.00,WeatherDisplay:10.37,2013-08-10 23:52:00,
2013-08-10 19:53:00,80.2,-15.9,30.08,NW,305,0.0,0.0,2,0.00,CLR,,0.00,WeatherDisplay:10.37,2013-08-10 23:53:00,
2013-08-10 19:56:00,79.7,-16.2,30.09,NW,305,0.0,0.0,2,0.00,CLR,,0.00,WeatherDisplay:10.37,2013-08-10 23:56:00,
2013-08-10 19:57:00,78.2,-17.2,30.09,North,1,0.3,3.5,2,0.00,CLR,,0.00,WeatherDisplay:10.37,2013-08-10 23:57:00,
2013-08-10 19:58:00,78.7,-16.8,30.09,NNW,329,1.7,5.8,2,0.00,CLR,,0.00,WeatherDisplay:10.37,2013-08-10 23:58:00,
2013-08-10 19:59:00,78.2,-17.2,30.09,NNW,329,0.6,5.8,2,0.00,CLR,,0.00,WeatherDisplay:10.37,2013-08-10 23:59:00,
2013-08-10 20:01:00,78.8,-16.8,30.09,NW,311,1.0,2.6,2,0.00,CLR,,0.00,WeatherDisplay:10.37,2013-08-11 00:01:00,
2013-08-10 20:02:00,79.1,-16.6,30.09,WNW,292,0.3,3.5,2,0.00,CLR,,0.00,WeatherDisplay:10.37,2013-08-11 00:02:00,
2013-08-10 20:04:00,78.9,-16.7,30.09,North,353,3.5,6.9,2,0.00,CLR,,0.00,WeatherDisplay:10.37,2013-08-11 00:04:00,
2013-08-10 20:06:00,78.4,-17.0,30.09,WNW,287,0.7,4.6,2,0.00,CLR,,0.00,WeatherDisplay:10.37,2013-08-11 00:06:00,
2013-08-10 20:07:00,78.9,-16.7,30.09,WNW,287,0.0,0.0,2,0.00,CLR,,0.00,WeatherDisplay:10.37,2013-08-11 00:07:00,
2013-08-10 20:09:00,79.0,-16.6,30.09,WNW,287,0.0,0.0,2,0.00,CLR,,0.00,WeatherDisplay:10.37,2013-08-11 00:09:00,
2013-08-10 20:11:00,78.9,-16.7,30.09,NNW,328,5.5,8.1,2,0.00,CLR,,0.00,WeatherDisplay:10.37,2013-08-11 00:11:00,
2013-08-10 20:12:00,78.0,-17.3,30.09,NNW,333,3.5,8.1,2,0.00,CLR,,0.00,WeatherDisplay:10.37,2013-08-11 00:12:00,
2013-08-10 20:13:00,78.5,-17.0,30.09,NNW,344,3.8,5.8,2,0.00,CLR,,0.00,WeatherDisplay:10.37,2013-08-11 00:13:00,
2013-08-10 20:14:00,78.8,-16.8,30.09,North,360,0.3,5.8,2,0.00,CLR,,0.00,WeatherDisplay:10.37,2013-08-11 00:14:00,
2013-08-10 20:15:00,77.9,-17.3,30.09,North,360,0.0,0.0,2,0.00,CLR,,0.00,WeatherDisplay:10.37,2013-08-11 00:15:00,
2013-08-10 20:17:00,79.1,-16.6,30.09,NNW,346,4.2,5.8,2,0.00,CLR,,0.00,WeatherDisplay:10.37,2013-08-11 00:17:00,
2013-08-10 20:18:00,78.1,-17.2,30.09,NNW,328,4.2,5.8,2,0.00,CLR,,0.00,WeatherDisplay:10.37,2013-08-11 00:18:00,
2013-08-10 20:19:00,77.1,-17.9,30.09,NNW,328,0.0,3.5,2,0.00,CLR,,0.00,WeatherDisplay:10.37,2013-08-11 00:19:00,
2013-08-10 20:20:00,77.8,-17.4,30.09,NNW,328,0.0,0.0,2,0.00,CLR,,0.00,WeatherDisplay:10.37,2013-08-11 00:20:00,
2013-08-10 20:22:00,77.4,-17.7,30.09,NNW,328,0.0,0.0,2,0.00,CLR,,0.00,WeatherDisplay:10.37,2013-08-11 00:22:00,
2013-08-10 20:23:00,78.1,-17.2,30.09,NNW,328,0.0,0.0,2,0.00,CLR,,0.00,WeatherDisplay:10.37,2013-08-11 00:23:00,
2013-08-10 20:24:00,78.2,-17.2,30.09,NNW,339,4.0,5.8,2,0.00,CLR,,0.00,WeatherDisplay:10.37,2013-08-11 00:24:00,
2013-08-10 20:25:00,77.7,-17.5,30.09,North,1,1.0,6.9,2,0.00,CLR,,0.00,WeatherDisplay:10.37,2013-08-11 00:25:00,
2013-08-10 20:27:00,78.0,-17.3,30.09,NW,319,3.4,9.2,2,0.00,CLR,,0.00,WeatherDisplay:10.37,2013-08-11 00:27:00,
2013-08-10 20:28:00,77.3,-17.7,30.09,NW,319,0.0,3.5,2,0.00,CLR,,0.00,WeatherDisplay:10.37,2013-08-11 00:28:00,
2013-08-10 20:29:00,77.3,-17.7,30.09,NNW,337,0.6,4.6,2,0.00,CLR,,0.00,WeatherDisplay:10.37,2013-08-11 00:29:00,
2013-08-10 20:30:00,77.8,-17.4,30.09,NW,325,0.7,4.6,2,0.00,CLR,,0.00,WeatherDisplay:10.37,2013-08-11 00:30:00,
2013-08-10 20:32:00,77.3,-17.7,30.09,NNW,328,4.2,6.9,2,0.00,CLR,,0.00,WeatherDisplay:10.37,2013-08-11 00:32:00,
2013-08-10 20:33:00,77.2,-17.8,30.09,NW,309,3.3,5.8,2,0.00,CLR,,0.00,WeatherDisplay:10.37,2013-08-11 00:33:00,
2013-08-10 20:35:00,77.5,-17.6,30.09,NW,304,4.6,8.1,2,0.00,CLR,,0.00,WeatherDisplay:10.37,2013-08-11 00:35:00,
2013-08-10 20:37:00,77.9,-17.3,30.10,NW,319,3.7,4.6,2,0.00,CLR,,0.00,WeatherDisplay:10.37,2013-08-11 00:37:00,
2013-08-10 20:38:00,78.3,-17.1,30.10,NNW,332,2.1,4.6,2,0.00,CLR,,0.00,WeatherDisplay:10.37,2013-08-11 00:38:00,
2013-08-10 20:39:00,78.0,-17.3,30.10,WNW,284,0.0,0.0,2,0.00,CLR,,0.00,WeatherDisplay:10.37,2013-08-11 00:39:00,
2013-08-10 20:40:00,78.0,-17.3,30.10,WNW,299,1.0,3.5,2,0.00,CLR,,0.00,WeatherDisplay:10.37,2013-08-11 00:40:00,
2013-08-10 20:42:00,77.9,-17.3,30.10,NNW,330,4.1,5.8,2,0.00,CLR,,0.00,WeatherDisplay:10.37,2013-08-11 00:42:00,
2013-08-10 20:43:00,77.8,-17.4,30.10,NNW,330,1.2,5.8,2,0.00,CLR,,0.00,WeatherDisplay:10.37,2013-08-11 00:43:00,
2013-08-10 20:44:00,78.2,-17.2,30.10,NNW,330,0.0,3.5,2,0.00,CLR,,0.00,WeatherDisplay:10.37,2013-08-11 00:44:00,
2013-08-10 20:45:00,77.2,-17.8,30.10,NNW,330,0.1,2.9,2,0.00,CLR,,0.00,WeatherDisplay:10.37,2013-08-11 00:45:00,
2013-08-10 20:48:00,77.9,-17.3,30.10,NNW,342,1.3,4.6,2,0.00,CLR,,0.00,WeatherDisplay:10.37,2013-08-11 00:48:00,
2013-08-10 20:49:00,77.2,-17.8,30.10,West,274,2.0,4.6,2,0.00,CLR,,0.00,WeatherDisplay:10.37,2013-08-11 00:49:00,
2013-08-10 20:50:00,77.7,-17.5,30.10,West,274,0.2,4.6,2,0.00,CLR,,0.00,WeatherDisplay:10.37,2013-08-11 00:50:00,
2013-08-10 20:51:00,77.9,-17.3,30.10,WNW,282,2.3,5.1,2,0.00,CLR,,0.00,WeatherDisplay:10.37,2013-08-11 00:51:00,
2013-08-10 20:53:00,77.8,-17.4,30.10,WNW,298,6.1,8.1,2,0.00,CLR,,0.00,WeatherDisplay:10.37,2013-08-11 00:53:00,
2013-08-10 20:54:00,77.0,-17.9,30.10,WNW,288,2.4,8.1,2,0.00,CLR,,0.00,WeatherDisplay:10.37,2013-08-11 00:54:00,
2013-08-10 20:55:00,77.2,-17.8,30.10,North,360,3.0,6.9,2,0.00,CLR,,0.00,WeatherDisplay:10.37,2013-08-11 00:55:00,
2013-08-10 20:56:00,76.8,-18.1,30.10,WNW,295,1.0,5.5,2,0.00,CLR,,0.00,WeatherDisplay:10.37,2013-08-11 00:56:00,
2013-08-10 20:58:00,77.8,-17.4,30.10,NNW,339,5.7,6.6,2,0.00,CLR,,0.00,WeatherDisplay:10.37,2013-08-11 00:58:00,
2013-08-10 20:59:00,77.5,-17.6,30.10,West,267,2.7,8.1,2,0.00,CLR,,0.00,WeatherDisplay:10.37,2013-08-11 00:59:00,
2013-08-10 21:00:00,77.2,-17.8,30.10,West,267,0.3,6.9,2,0.00,CLR,,0.00,WeatherDisplay:10.37,2013-08-11 01:00:00,
2013-08-10 21:01:00,76.9,-18.0,30.10,West,267,0.0,0.0,2,0.00,CLR,,0.00,WeatherDisplay:10.37,2013-08-11 01:01:00,
2013-08-10 21:03:00,77.0,-17.9,30.10,NNW,347,2.5,2.8,2,0.00,CLR,,0.00,WeatherDisplay:10.37,2013-08-11 01:03:00,
2013-08-10 21:04:00,77.0,-17.9,30.10,WSW,257,3.4,6.9,2,0.00,CLR,,0.00,WeatherDisplay:10.37,2013-08-11 01:04:00,
2013-08-10 21:06:00,77.3,-17.7,30.10,NW,318,0.8,5.8,2,0.00,CLR,,0.00,WeatherDisplay:10.37,2013-08-11 01:06:00,
2013-08-10 21:09:00,77.1,-17.9,30.10,West,272,0.0,0.0,2,0.00,CLR,,0.00,WeatherDisplay:10.37,2013-08-11 01:09:00,
2013-08-10 21:10:00,77.9,-17.3,30.11,North,360,2.2,6.9,2,0.00,CLR,,0.00,WeatherDisplay:10.37,2013-08-11 01:10:00,
2013-08-10 21:11:00,77.2,-17.8,30.11,NNW,343,5.3,6.9,2,0.00,CLR,,0.00,WeatherDisplay:10.37,2013-08-11 01:11:00,
2013-08-10 21:14:00,77.0,-17.9,30.11,WSW,251,0.0,0.0,2,0.00,CLR,,0.00,WeatherDisplay:10.37,2013-08-11 01:14:00,
2013-08-10 21:15:00,77.3,-17.7,30.11,WSW,251,0.0,0.0,2,0.00,CLR,,0.00,WeatherDisplay:10.37,2013-08-11 01:15:00,
2013-08-10 21:16:00,77.0,-17.9,30.11,WSW,251,0.0,0.0,2,0.00,CLR,,0.00,WeatherDisplay:10.37,2013-08-11 01:16:00,
2013-08-10 21:19:00,78.0,-17.3,30.11,WNW,295,0.0,4.6,2,0.00,CLR,,0.00,WeatherDisplay:10.37,2013-08-11 01:19:00,
2013-08-10 21:20:00,77.5,-17.6,30.11,WNW,295,0.0,0.0,2,0.00,CLR,,0.00,WeatherDisplay:10.37,2013-08-11 01:20:00,
2013-08-10 21:21:00,77.9,-9.3,30.11,WNW,295,0.0,0.0,3,0.00,CLR,,0.00,WeatherDisplay:10.37,2013-08-11 01:21:00,
2013-08-10 21:24:00,76.9,-9.9,30.11,WNW,295,0.0,0.0,3,0.00,CLR,,0.00,WeatherDisplay:10.37,2013-08-11 01:24:00,
2013-08-10 21:25:00,76.9,-9.9,30.11,WNW,295,0.0,0.0,3,0.00,CLR,,0.00,WeatherDisplay:10.37,2013-08-11 01:25:00,
2013-08-10 21:26:00,76.8,-10.0,30.11,WNW,295,0.0,0.0,3,0.00,CLR,,0.00,WeatherDisplay:10.37,2013-08-11 01:26:00,
2013-08-10 21:27:00,77.0,-9.9,30.11,WNW,295,0.0,0.0,3,0.00,CLR,,0.00,WeatherDisplay:10.37,2013-08-11 01:27:00,
2013-08-10 21:29:00,77.7,-9.4,30.11,WNW,295,0.0,0.0,3,0.00,CLR,,0.00,WeatherDisplay:10.37,2013-08-11 01:29:00,
2013-08-10 21:30:00,77.7,-9.4,30.11,WNW,295,0.0,0.0,3,0.00,CLR,,0.00,WeatherDisplay:10.37,2013-08-11 01:30:00,
2013-08-10 21:31:00,77.1,-9.8,30.11,NW,316,1.0,4.8,3,0.00,CLR,,0.00,WeatherDisplay:10.37,2013-08-11 01:31:00,
2013-08-10 21:32:00,77.2,-9.7,30.11,NW,319,2.0,4.6,3,0.00,CLR,,0.00,WeatherDisplay:10.37,2013-08-11 01:32:00,
2013-08-10 21:35:00,76.4,-10.3,30.11,NW,319,0.0,0.0,3,0.00,CLR,,0.00,WeatherDisplay:10.37,2013-08-11 01:35:00,
2013-08-10 21:36:00,76.6,-10.1,30.11,NW,318,1.2,5.8,3,0.00,CLR,,0.00,WeatherDisplay:10.37,2013-08-11 01:36:00,
2013-08-10 21:37:00,76.6,-10.1,30.11,NW,318,2.9,5.8,3,0.00,CLR,,0.00,WeatherDisplay:10.37,2013-08-11 01:37:00,
2013-08-10 21:40:00,76.7,-10.1,30.12,NNW,344,2.4,4.6,3,0.00,CLR,,0.00,WeatherDisplay:10.37,2013-08-11 01:40:00,
2013-08-10 21:41:00,76.6,-10.1,30.12,West,275,0.8,4.6,3,0.00,CLR,,0.00,WeatherDisplay:10.37,2013-08-11 01:41:00,
2013-08-10 21:42:00,76.9,-9.9,30.12,West,260,0.4,4.6,3,0.00,CLR,,0.00,WeatherDisplay:10.37,2013-08-11 01:42:00,
2013-08-10 21:45:00,76.6,-10.1,30.12,West,260,0.0,0.0,3,0.00,CLR,,0.00,WeatherDisplay:10.37,2013-08-11 01:45:00,
2013-08-10 21:47:00,76.8,-10.0,30.12,WNW,298,2.9,5.8,3,0.00,CLR,,0.00,WeatherDisplay:10.37,2013-08-11 01:47:00,
2013-08-10 21:50:00,76.6,-10.1,30.12,SW,234,3.6,4.6,3,0.00,CLR,,0.00,WeatherDisplay:10.37,2013-08-11 01:50:00,
2013-08-10 21:51:00,76.9,-9.9,30.12,West,260,1.5,5.8,3,0.00,CLR,,0.00,WeatherDisplay:10.37,2013-08-11 01:51:00,
2013-08-10 21:52:00,76.6,-10.1,30.12,West,260,0.0,0.0,3,0.00,CLR,,0.00,WeatherDisplay:10.37,2013-08-11 01:52:00,
2013-08-10 21:53:00,76.5,-10.2,30.12,West,260,0.0,0.0,3,0.00,CLR,,0.00,WeatherDisplay:10.37,2013-08-11 01:53:00,
2013-08-10 21:55:00,76.7,-10.1,30.12,West,265,0.0,2.3,3,0.00,CLR,,0.00,WeatherDisplay:10.37,2013-08-11 01:55:00,
2013-08-10 21:56:00,76.7,-10.1,30.12,West,265,0.0,0.0,3,0.00,CLR,,0.00,WeatherDisplay:10.37,2013-08-11 01:56:00,
2013-08-10 21:57:00,76.7,-10.1,30.12,West,265,0.0,0.0,3,0.00,CLR,,0.00,WeatherDisplay:10.37,2013-08-11 01:57:00,
2013-08-10 21:58:00,76.4,-10.3,30.12,West,265,0.0,0.0,3,0.00,CLR,,0.00,WeatherDisplay:10.37,2013-08-11 01:58:00,
2013-08-10 22:00:00,77.1,-9.8,30.12,West,265,0.0,0.0,3,0.00,CLR,,0.00,WeatherDisplay:10.37,2013-08-11 02:00:00,
2013-08-10 22:01:00,76.5,-10.2,30.12,West,265,0.0,0.0,3,0.00,CLR,,0.00,WeatherDisplay:10.37,2013-08-11 02:01:00,
2013-08-10 22:02:00,76.6,-10.1,30.12,West,265,0.0,0.0,3,0.00,CLR,,0.00,WeatherDisplay:10.37,2013-08-11 02:02:00,
2013-08-10 22:03:00,77.1,-9.8,30.13,West,265,0.0,0.0,3,0.00,CLR,,0.00,WeatherDisplay:10.37,2013-08-11 02:03:00,
2013-08-10 22:05:00,76.6,-10.1,30.13,West,265,0.0,0.0,3,0.00,CLR,,0.00,WeatherDisplay:10.37,2013-08-11 02:05:00,
2013-08-10 22:06:00,76.5,-10.2,30.13,West,265,0.0,0.0,3,0.00,CLR,,0.00,WeatherDisplay:10.37,2013-08-11 02:06:00,
2013-08-10 22:07:00,76.7,-10.1,30.13,West,265,0.0,0.0,3,0.00,CLR,,0.00,WeatherDisplay:10.37,2013-08-11 02:07:00,
2013-08-10 22:08:00,76.9,-9.9,30.12,West,265,0.0,0.0,3,0.00,CLR,,0.00,WeatherDisplay:10.37,2013-08-11 02:08:00,
2013-08-10 22:10:00,76.4,-10.3,30.12,West,265,0.0,0.0,3,0.00,CLR,,0.00,WeatherDisplay:10.37,2013-08-11 02:10:00,
2013-08-10 22:11:00,76.6,-10.1,30.12,West,265,0.0,0.0,3,0.00,CLR,,0.00,WeatherDisplay:10.37,2013-08-11 02:11:00,
2013-08-10 22:12:00,77.0,-9.9,30.12,West,265,0.0,0.0,3,0.00,CLR,,0.00,WeatherDisplay:10.37,2013-08-11 02:12:00,
2013-08-10 22:14:00,76.7,-10.1,30.12,West,265,0.0,0.0,3,0.00,CLR,,0.00,WeatherDisplay:10.37,2013-08-11 02:14:00,
2013-08-10 22:15:00,76.7,-10.1,30.12,West,265,0.0,0.0,3,0.00,CLR,,0.00,WeatherDisplay:10.37,2013-08-11 02:15:00,
2013-08-10 22:16:00,76.9,-9.9,30.12,West,265,0.0,0.0,3,0.00,CLR,,0.00,WeatherDisplay:10.37,2013-08-11 02:16:00,
2013-08-10 22:17:00,76.9,-9.9,30.12,West,265,0.0,0.0,3,0.00,CLR,,0.00,WeatherDisplay:10.37,2013-08-11 02:17:00,
2013-08-10 22:19:00,76.5,-10.2,30.12,West,265,0.0,0.0,3,0.00,CLR,,0.00,WeatherDisplay:10.37,2013-08-11 02:19:00,
2013-08-10 22:20:00,77.2,-9.7,30.12,West,265,0.0,0.0,3,0.00,CLR,,0.00,WeatherDisplay:10.37,2013-08-11 02:20:00,
2013-08-10 22:21:00,76.7,-10.1,30.12,West,265,0.0,0.0,3,0.00,CLR,,0.00,WeatherDisplay:10.37,2013-08-11 02:21:00,
2013-08-10 22:22:00,76.5,-10.2,30.12,West,265,0.0,0.0,3,0.00,CLR,,0.00,WeatherDisplay:10.37,2013-08-11 02:22:00,
2013-08-10 22:23:00,76.4,-10.3,30.12,West,265,0.0,0.0,3,0.00,CLR,,0.00,WeatherDisplay:10.37,2013-08-11 02:23:00,
2013-08-10 22:24:00,76.6,-4.2,30.12,West,265,0.0,0.0,4,0.00,CLR,,0.00,WeatherDisplay:10.37,2013-08-11 02:24:00,
2013-08-10 22:25:00,76.8,-10.0,30.12,West,265,0.0,0.0,3,0.00,CLR,,0.00,WeatherDisplay:10.37,2013-08-11 02:25:00,
2013-08-10 22:26:00,76.2,-4.5,30.12,West,265,0.0,0.0,4,0.00,CLR,,0.00,WeatherDisplay:10.37,2013-08-11 02:26:00,
2013-08-10 22:27:00,76.3,-4.4,30.12,West,265,0.0,0.0,4,0.00,CLR,,0.00,WeatherDisplay:10.37,2013-08-11 02:27:00,
2013-08-10 22:28:00,76.4,-4.3,30.12,West,265,0.0,0.0,4,0.00,CLR,,0.00,WeatherDisplay:10.37,2013-08-11 02:28:00,
2013-08-10 22:29:00,76.6,-4.2,30.12,West,265,0.0,0.0,4,0.00,CLR,,0.00,WeatherDisplay:10.37,2013-08-11 02:29:00,
2013-08-10 22:31:00,76.4,-4.3,30.12,West,265,0.0,0.0,4,0.00,CLR,,0.00,WeatherDisplay:10.37,2013-08-11 02:31:00,
2013-08-10 22:32:00,76.1,-4.6,30.12,West,265,0.0,0.0,4,0.00,CLR,,0.00,WeatherDisplay:10.37,2013-08-11 02:32:00,
2013-08-10 22:33:00,76.7,-4.1,30.12,West,265,0.0,0.0,4,0.00,CLR,,0.00,WeatherDisplay:10.37,2013-08-11 02:33:00,
2013-08-10 22:35:00,76.2,-4.5,30.12,West,265,0.0,0.0,4,0.00,CLR,,0.00,WeatherDisplay:10.37,2013-08-11 02:35:00,
2013-08-10 22:36:00,76.3,-4.4,30.12,West,265,0.0,0.0,4,0.00,CLR,,0.00,WeatherDisplay:10.37,2013-08-11 02:36:00,
2013-08-10 22:37:00,76.3,-4.4,30.12,West,265,0.0,0.0,4,0.00,CLR,,0.00,WeatherDisplay:10.37,2013-08-11 02:37:00,
2013-08-10 22:38:00,76.3,-4.4,30.12,West,265,0.0,0.0,4,0.00,CLR,,0.00,WeatherDisplay:10.37,2013-08-11 02:38:00,
2013-08-10 22:41:00,76.4,-4.3,30.12,West,265,0.0,0.0,4,0.00,CLR,,0.00,WeatherDisplay:10.37,2013-08-11 02:41:00,
2013-08-10 22:42:00,76.5,-4.3,30.12,West,265,0.0,0.0,4,0.00,CLR,,0.00,WeatherDisplay:10.37,2013-08-11 02:42:00,
2013-08-10 22:43:00,76.1,0.2,30.12,West,265,0.0,0.0,5,0.00,CLR,,0.00,WeatherDisplay:10.37,2013-08-11 02:43:00,
2013-08-10 22:46:00,76.5,0.4,30.12,West,265,0.0,0.0,5,0.00,CLR,,0.00,WeatherDisplay:10.37,2013-08-11 02:46:00,
2013-08-10 22:47:00,76.1,0.2,30.12,West,265,0.0,0.0,5,0.00,CLR,,0.00,WeatherDisplay:10.37,2013-08-11 02:47:00,
2013-08-10 22:49:00,76.1,0.2,30.13,West,265,0.0,0.0,5,0.00,CLR,,0.00,WeatherDisplay:10.37,2013-08-11 02:49:00,
2013-08-10 22:51:00,76.1,-4.6,30.13,West,265,0.0,0.0,4,0.00,CLR,,0.00,WeatherDisplay:10.37,2013-08-11 02:51:00,
2013-08-10 22:52:00,76.2,-4.5,30.13,West,265,0.0,0.0,4,0.00,CLR,,0.00,WeatherDisplay:10.37,2013-08-11 02:52:00,
2013-08-10 22:53:00,75.9,-10.6,30.13,West,265,0.0,0.0,3,0.00,CLR,,0.00,WeatherDisplay:10.37,2013-08-11 02:53:00,
2013-08-10 22:55:00,76.4,-10.3,30.13,West,265,0.0,0.0,3,0.00,CLR,,0.00,WeatherDisplay:10.37,2013-08-11 02:55:00,
2013-08-10 22:57:00,76.4,-10.3,30.13,West,265,0.0,0.0,3,0.00,CLR,,0.00,WeatherDisplay:10.37,2013-08-11 02:57:00,
2013-08-10 22:58:00,76.4,-10.3,30.13,West,265,0.0,0.0,3,0.00,CLR,,0.00,WeatherDisplay:10.37,2013-08-11 02:58:00,
2013-08-10 23:02:00,76.4,-10.3,30.13,West,265,0.0,0.0,3,0.00,CLR,,0.00,WeatherDisplay:10.37,2013-08-11 03:02:00,
2013-08-10 23:04:00,76.4,-4.3,30.13,West,265,0.0,0.0,4,0.00,CLR,,0.00,WeatherDisplay:10.37,2013-08-11 03:04:00,
2013-08-10 23:06:00,76.5,-4.3,30.13,West,265,0.0,0.0,4,0.00,CLR,,0.00,WeatherDisplay:10.37,2013-08-11 03:06:00,
2013-08-10 23:08:00,76.3,-10.3,30.13,West,265,0.0,0.0,3,0.00,CLR,,0.00,WeatherDisplay:10.37,2013-08-11 03:08:00,
2013-08-10 23:10:00,76.3,-18.4,30.13,West,265,0.0,0.0,2,0.00,CLR,,0.00,WeatherDisplay:10.37,2013-08-11 03:10:00,
2013-08-10 23:12:00,76.3,-18.4,30.13,West,265,0.0,0.0,2,0.00,CLR,,0.00,WeatherDisplay:10.37,2013-08-11 03:12:00,
2013-08-10 23:14:00,76.4,-4.3,30.13,West,265,0.0,0.0,4,0.00,CLR,,0.00,WeatherDisplay:10.37,2013-08-11 03:14:00,
2013-08-10 23:15:00,76.2,0.2,30.13,West,265,0.0,0.0,5,0.00,CLR,,0.00,WeatherDisplay:10.37,2013-08-11 03:15:00,
2013-08-10 23:18:00,75.7,3.8,30.14,West,265,0.0,0.0,6,0.00,CLR,,0.00,WeatherDisplay:10.37,2013-08-11 03:18:00,
2013-08-10 23:20:00,75.7,3.8,30.14,West,265,0.0,0.0,6,0.00,CLR,,0.00,WeatherDisplay:10.37,2013-08-11 03:20:00,
2013-08-10 23:21:00,75.2,6.8,30.14,West,265,0.0,0.0,7,0.00,CLR,,0.00,WeatherDisplay:10.37,2013-08-11 03:21:00,
2013-08-10 23:23:00,75.3,6.9,30.14,West,265,0.0,0.0,7,0.00,CLR,,0.00,WeatherDisplay:10.37,2013-08-11 03:23:00,
2013-08-10 23:25:00,74.7,3.1,30.14,West,265,0.0,0.0,6,0.00,CLR,,0.00,WeatherDisplay:10.37,2013-08-11 03:25:00,
2013-08-10 23:26:00,75.0,3.3,30.14,West,265,0.0,0.0,6,0.00,CLR,,0.00,WeatherDisplay:10.37,2013-08-11 03:26:00,
2013-08-10 23:29:00,74.7,6.4,30.13,West,265,0.0,0.0,7,0.00,CLR,,0.00,WeatherDisplay:10.37,2013-08-11 03:29:00,
2013-08-10 23:30:00,74.8,12.1,30.14,West,265,0.0,0.0,9,0.00,CLR,,0.00,WeatherDisplay:10.37,2013-08-11 03:30:00,
2013-08-10 23:31:00,75.0,12.3,30.14,West,265,0.0,0.0,9,0.00,CLR,,0.00,WeatherDisplay:10.37,2013-08-11 03:31:00,
2013-08-10 23:32:00,74.6,14.4,30.14,West,265,0.0,0.0,10,0.00,CLR,,0.00,WeatherDisplay:10.37,2013-08-11 03:32:00,
2013-08-10 23:34:00,74.5,16.5,30.14,NE,55,2.1,6.9,11,0.00,CLR,,0.00,WeatherDisplay:10.37,2013-08-11 03:34:00,
2013-08-10 23:36:00,74.3,18.4,30.14,NE,47,0.5,4.6,12,0.00,CLR,,0.00,WeatherDisplay:10.37,2013-08-11 03:36:00,
2013-08-10 23:37:00,74.3,18.4,30.14,NE,47,0.0,0.0,12,0.00,CLR,,0.00,WeatherDisplay:10.37,2013-08-11 03:37:00,
2013-08-10 23:39:00,74.2,18.3,30.14,NE,47,0.0,0.0,12,0.00,CLR,,0.00,WeatherDisplay:10.37,2013-08-11 03:39:00,
2013-08-10 23:41:00,74.4,11.8,30.14,NE,47,0.0,0.0,9,0.00,CLR,,0.00,WeatherDisplay:10.37,2013-08-11 03:41:00,
2013-08-10 23:42:00,74.6,14.4,30.14,NE,47,0.0,0.0,10,0.00,CLR,,0.00,WeatherDisplay:10.37,2013-08-11 03:42:00,
2013-08-10 23:44:00,74.2,16.3,30.14,NE,47,0.0,0.0,11,0.00,CLR,,0.00,WeatherDisplay:10.37,2013-08-11 03:44:00,
2013-08-10 23:47:00,74.8,16.7,30.14,NE,47,0.0,0.0,11,0.00,CLR,,0.00,WeatherDisplay:10.37,2013-08-11 03:47:00,
2013-08-10 23:49:00,74.6,18.6,30.14,NE,47,0.0,0.0,12,0.00,CLR,,0.00,WeatherDisplay:10.37,2013-08-11 03:49:00,
2013-08-10 23:50:00,74.5,14.3,30.14,NE,47,0.0,0.0,10,0.00,CLR,,0.00,WeatherDisplay:10.37,2013-08-11 03:50:00,
2013-08-10 23:52:00,74.8,12.1,30.14,NE,47,0.0,0.0,9,0.00,CLR,,0.00,WeatherDisplay:10.37,2013-08-11 03:52:00,
2013-08-10 23:54:00,75.1,9.7,30.14,NE,47,0.0,0.0,8,0.00,CLR,,0.00,WeatherDisplay:10.37,2013-08-11 03:54:00,
2013-08-10 23:56:00,74.8,14.5,30.14,NE,47,0.0,0.0,10,0.00,CLR,,0.00,WeatherDisplay:10.37,2013-08-11 03:56:00,
2013-08-10 23:57:00,75.2,19.1,30.14,NE,47,0.0,0.0,12,0.00,CLR,,0.00,WeatherDisplay:10.37,2013-08-11 03:57:00,